<?xml version="1.0" encoding="UTF-8" standalone="no" ?>
<gpx xmlns="http://www.topografix.com/GPX/1/1" xmlns:xsi="http://www.w3.org/2001/XMLSchema-instance" xsi:schemaLocation="http://www.topografix.com/GPX/1/1 http://www.topografix.com/GPX/1/1/gpx.xsd" version="1.1" creator="VisuGPX - https://www.visugpx.com">
  <metadata>
    <name>Campuac - Estaing 45km</name>
  </metadata>
  <trk>
    <name><![CDATA[Campuac - Estaing 45km]]></name>
    <trkseg>
      <trkpt lat="44.56876" lon="2.58824">
        <ele>648.40185546875</ele>
        <time>2020-07-02T19:11:24.000Z</time>
      </trkpt>
      <trkpt lat="44.56894" lon="2.58899">
        <ele>651.4619140625</ele>
        <time>2020-07-02T19:11:24.019Z</time>
      </trkpt>
      <trkpt lat="44.56881" lon="2.58931">
        <ele>651.46740722656</ele>
        <time>2020-07-02T19:11:24.047Z</time>
      </trkpt>
      <trkpt lat="44.56873" lon="2.5897">
        <ele>653.44635009766</ele>
        <time>2020-07-02T19:11:24.084Z</time>
      </trkpt>
      <trkpt lat="44.56878" lon="2.58999">
        <ele>654.78497314453</ele>
        <time>2020-07-02T19:11:24.128Z</time>
      </trkpt>
      <trkpt lat="44.56883" lon="2.59011">
        <ele>654.81854248047</ele>
        <time>2020-07-02T19:11:24.176Z</time>
      </trkpt>
      <trkpt lat="44.56872" lon="2.59056">
        <ele>654.947265625</ele>
        <time>2020-07-02T19:11:24.235Z</time>
      </trkpt>
      <trkpt lat="44.56816" lon="2.59113">
        <ele>652.74664306641</ele>
        <time>2020-07-02T19:11:24.317Z</time>
      </trkpt>
      <trkpt lat="44.56777" lon="2.5914">
        <ele>652.05969238281</ele>
        <time>2020-07-02T19:11:24.414Z</time>
      </trkpt>
      <trkpt lat="44.56777" lon="2.5914">
        <ele>652.05938720703</ele>
        <time>2020-07-02T19:11:24.511Z</time>
      </trkpt>
      <trkpt lat="44.56668" lon="2.59258">
        <ele>645.80535888672</ele>
        <time>2020-07-02T19:11:24.654Z</time>
      </trkpt>
      <trkpt lat="44.56542" lon="2.59439">
        <ele>628.33679199219</ele>
        <time>2020-07-02T19:11:24.857Z</time>
      </trkpt>
      <trkpt lat="44.56536" lon="2.59465">
        <ele>625.10583496094</ele>
        <time>2020-07-02T19:11:25.066Z</time>
      </trkpt>
      <trkpt lat="44.5654" lon="2.59549">
        <ele>618.66693115234</ele>
        <time>2020-07-02T19:11:25.295Z</time>
      </trkpt>
      <trkpt lat="44.56553" lon="2.59573">
        <ele>618.42236328125</ele>
        <time>2020-07-02T19:11:25.532Z</time>
      </trkpt>
      <trkpt lat="44.56581" lon="2.59587">
        <ele>620.36608886719</ele>
        <time>2020-07-02T19:11:25.779Z</time>
      </trkpt>
      <trkpt lat="44.56593" lon="2.5958">
        <ele>621.94940185547</ele>
        <time>2020-07-02T19:11:26.030Z</time>
      </trkpt>
      <trkpt lat="44.56607" lon="2.59551">
        <ele>624.74468994141</ele>
        <time>2020-07-02T19:11:26.289Z</time>
      </trkpt>
      <trkpt lat="44.56619" lon="2.59547">
        <ele>625.85284423828</ele>
        <time>2020-07-02T19:11:26.553Z</time>
      </trkpt>
      <trkpt lat="44.56636" lon="2.59584">
        <ele>624.25665283203</ele>
        <time>2020-07-02T19:11:26.827Z</time>
      </trkpt>
      <trkpt lat="44.56635" lon="2.59609">
        <ele>624.64367675781</ele>
        <time>2020-07-02T19:11:27.107Z</time>
      </trkpt>
      <trkpt lat="44.56577" lon="2.59698">
        <ele>620.51446533203</ele>
        <time>2020-07-02T19:11:27.416Z</time>
      </trkpt>
      <trkpt lat="44.56577" lon="2.59698">
        <ele>620.51422119141</ele>
        <time>2020-07-02T19:11:27.725Z</time>
      </trkpt>
      <trkpt lat="44.56566" lon="2.59704">
        <ele>621.33282470703</ele>
        <time>2020-07-02T19:11:28.038Z</time>
      </trkpt>
      <trkpt lat="44.56477" lon="2.59678">
        <ele>617.62829589844</ele>
        <time>2020-07-02T19:11:28.381Z</time>
      </trkpt>
      <trkpt lat="44.56426" lon="2.59698">
        <ele>619.35522460938</ele>
        <time>2020-07-02T19:11:28.742Z</time>
      </trkpt>
      <trkpt lat="44.5642" lon="2.59704">
        <ele>620.31512451172</ele>
        <time>2020-07-02T19:11:29.105Z</time>
      </trkpt>
      <trkpt lat="44.5642" lon="2.59704">
        <ele>620.31530761719</ele>
        <time>2020-07-02T19:11:29.468Z</time>
      </trkpt>
      <trkpt lat="44.5642" lon="2.59704">
        <ele>620.31268310547</ele>
        <time>2020-07-02T19:11:29.831Z</time>
      </trkpt>
      <trkpt lat="44.56408" lon="2.59716">
        <ele>620.57830810547</ele>
        <time>2020-07-02T19:11:30.199Z</time>
      </trkpt>
      <trkpt lat="44.56381" lon="2.59786">
        <ele>613.82861328125</ele>
        <time>2020-07-02T19:11:30.586Z</time>
      </trkpt>
      <trkpt lat="44.56373" lon="2.59828">
        <ele>612.20672607422</ele>
        <time>2020-07-02T19:11:30.983Z</time>
      </trkpt>
      <trkpt lat="44.56318" lon="2.59891">
        <ele>612.50933837891</ele>
        <time>2020-07-02T19:11:31.404Z</time>
      </trkpt>
      <trkpt lat="44.56265" lon="2.59924">
        <ele>616.49475097656</ele>
        <time>2020-07-02T19:11:31.845Z</time>
      </trkpt>
      <trkpt lat="44.56192" lon="2.59931">
        <ele>625.02899169922</ele>
        <time>2020-07-02T19:11:32.310Z</time>
      </trkpt>
      <trkpt lat="44.56143" lon="2.59871">
        <ele>625.65814208984</ele>
        <time>2020-07-02T19:11:32.797Z</time>
      </trkpt>
      <trkpt lat="44.56116" lon="2.59848">
        <ele>626.38238525391</ele>
        <time>2020-07-02T19:11:33.294Z</time>
      </trkpt>
      <trkpt lat="44.56093" lon="2.59837">
        <ele>626.93591308594</ele>
        <time>2020-07-02T19:11:33.799Z</time>
      </trkpt>
      <trkpt lat="44.5602" lon="2.59836">
        <ele>627.40765380859</ele>
        <time>2020-07-02T19:11:34.329Z</time>
      </trkpt>
      <trkpt lat="44.55987" lon="2.59817">
        <ele>624.96234130859</ele>
        <time>2020-07-02T19:11:34.870Z</time>
      </trkpt>
      <trkpt lat="44.55987" lon="2.59817">
        <ele>624.95941162109</ele>
        <time>2020-07-02T19:11:35.411Z</time>
      </trkpt>
      <trkpt lat="44.55987" lon="2.59817">
        <ele>624.95758056641</ele>
        <time>2020-07-02T19:11:35.952Z</time>
      </trkpt>
      <trkpt lat="44.55928" lon="2.59784">
        <ele>620.32409667969</ele>
        <time>2020-07-02T19:11:36.515Z</time>
      </trkpt>
      <trkpt lat="44.55873" lon="2.59778">
        <ele>613.82751464844</ele>
        <time>2020-07-02T19:11:37.096Z</time>
      </trkpt>
      <trkpt lat="44.5568" lon="2.59809">
        <ele>597.50921630859</ele>
        <time>2020-07-02T19:11:37.742Z</time>
      </trkpt>
      <trkpt lat="44.55609" lon="2.59822">
        <ele>595.64422607422</ele>
        <time>2020-07-02T19:11:38.412Z</time>
      </trkpt>
      <trkpt lat="44.55378" lon="2.59948">
        <ele>586.29040527344</ele>
        <time>2020-07-02T19:11:39.164Z</time>
      </trkpt>
      <trkpt lat="44.55369" lon="2.5997">
        <ele>585.74975585938</ele>
        <time>2020-07-02T19:11:39.923Z</time>
      </trkpt>
      <trkpt lat="44.55324" lon="2.60002">
        <ele>580.82379150391</ele>
        <time>2020-07-02T19:11:40.698Z</time>
      </trkpt>
      <trkpt lat="44.55293" lon="2.60038">
        <ele>575.7607421875</ele>
        <time>2020-07-02T19:11:41.487Z</time>
      </trkpt>
      <trkpt lat="44.55293" lon="2.60038">
        <ele>575.75982666016</ele>
        <time>2020-07-02T19:11:42.276Z</time>
      </trkpt>
      <trkpt lat="44.55277" lon="2.60063">
        <ele>572.98480224609</ele>
        <time>2020-07-02T19:11:43.073Z</time>
      </trkpt>
      <trkpt lat="44.55233" lon="2.60088">
        <ele>568.63043212891</ele>
        <time>2020-07-02T19:11:43.886Z</time>
      </trkpt>
      <trkpt lat="44.55158" lon="2.60175">
        <ele>565.65710449219</ele>
        <time>2020-07-02T19:11:44.731Z</time>
      </trkpt>
      <trkpt lat="44.55147" lon="2.60205">
        <ele>566.81561279297</ele>
        <time>2020-07-02T19:11:45.584Z</time>
      </trkpt>
      <trkpt lat="44.55161" lon="2.60256">
        <ele>565.16107177734</ele>
        <time>2020-07-02T19:11:46.450Z</time>
      </trkpt>
      <trkpt lat="44.55161" lon="2.60256">
        <ele>565.16192626953</ele>
        <time>2020-07-02T19:11:47.316Z</time>
      </trkpt>
      <trkpt lat="44.55172" lon="2.60311">
        <ele>561.86651611328</ele>
        <time>2020-07-02T19:11:48.196Z</time>
      </trkpt>
      <trkpt lat="44.55131" lon="2.60396">
        <ele>557.88720703125</ele>
        <time>2020-07-02T19:11:49.100Z</time>
      </trkpt>
      <trkpt lat="44.55126" lon="2.6049">
        <ele>549.10870361328</ele>
        <time>2020-07-02T19:11:50.027Z</time>
      </trkpt>
      <trkpt lat="44.55109" lon="2.60574">
        <ele>544.0234375</ele>
        <time>2020-07-02T19:11:50.974Z</time>
      </trkpt>
      <trkpt lat="44.55114" lon="2.60636">
        <ele>537.46820068359</ele>
        <time>2020-07-02T19:11:51.936Z</time>
      </trkpt>
      <trkpt lat="44.5509" lon="2.60698">
        <ele>537.33264160156</ele>
        <time>2020-07-02T19:11:52.915Z</time>
      </trkpt>
      <trkpt lat="44.55071" lon="2.60701">
        <ele>539.26354980469</ele>
        <time>2020-07-02T19:11:53.900Z</time>
      </trkpt>
      <trkpt lat="44.55071" lon="2.60705">
        <ele>539.37518310547</ele>
        <time>2020-07-02T19:11:54.886Z</time>
      </trkpt>
      <trkpt lat="44.55103" lon="2.60758">
        <ele>538.57501220703</ele>
        <time>2020-07-02T19:11:55.889Z</time>
      </trkpt>
      <trkpt lat="44.55115" lon="2.60813">
        <ele>542.92590332031</ele>
        <time>2020-07-02T19:11:56.905Z</time>
      </trkpt>
      <trkpt lat="44.55161" lon="2.60942">
        <ele>545.29187011719</ele>
        <time>2020-07-02T19:11:57.956Z</time>
      </trkpt>
      <trkpt lat="44.55164" lon="2.6103">
        <ele>551.31201171875</ele>
        <time>2020-07-02T19:11:59.028Z</time>
      </trkpt>
      <trkpt lat="44.55153" lon="2.61082">
        <ele>552.05993652344</ele>
        <time>2020-07-02T19:12:00.113Z</time>
      </trkpt>
      <trkpt lat="44.55124" lon="2.61116">
        <ele>551.14849853516</ele>
        <time>2020-07-02T19:12:01.211Z</time>
      </trkpt>
      <trkpt lat="44.55129" lon="2.6118">
        <ele>543.47827148438</ele>
        <time>2020-07-02T19:12:02.324Z</time>
      </trkpt>
      <trkpt lat="44.55129" lon="2.61185">
        <ele>542.47192382812</ele>
        <time>2020-07-02T19:12:03.438Z</time>
      </trkpt>
      <trkpt lat="44.55119" lon="2.61185">
        <ele>541.08172607422</ele>
        <time>2020-07-02T19:12:04.555Z</time>
      </trkpt>
      <trkpt lat="44.55108" lon="2.6122">
        <ele>533.72662353516</ele>
        <time>2020-07-02T19:12:05.681Z</time>
      </trkpt>
      <trkpt lat="44.55115" lon="2.61244">
        <ele>529.42724609375</ele>
        <time>2020-07-02T19:12:06.813Z</time>
      </trkpt>
      <trkpt lat="44.55106" lon="2.61247">
        <ele>528.5791015625</ele>
        <time>2020-07-02T19:12:07.948Z</time>
      </trkpt>
      <trkpt lat="44.55089" lon="2.61244">
        <ele>528.74645996094</ele>
        <time>2020-07-02T19:12:09.089Z</time>
      </trkpt>
      <trkpt lat="44.55065" lon="2.61334">
        <ele>507.78170776367</ele>
        <time>2020-07-02T19:12:10.253Z</time>
      </trkpt>
      <trkpt lat="44.55035" lon="2.61324">
        <ele>508.65704345703</ele>
        <time>2020-07-02T19:12:11.427Z</time>
      </trkpt>
      <trkpt lat="44.5502" lon="2.61331">
        <ele>507.81039428711</ele>
        <time>2020-07-02T19:12:12.606Z</time>
      </trkpt>
      <trkpt lat="44.55014" lon="2.61392">
        <ele>499.23468017578</ele>
        <time>2020-07-02T19:12:13.800Z</time>
      </trkpt>
      <trkpt lat="44.55053" lon="2.61479">
        <ele>494.13745117188</ele>
        <time>2020-07-02T19:12:15.019Z</time>
      </trkpt>
      <trkpt lat="44.55073" lon="2.61584">
        <ele>486.04983520508</ele>
        <time>2020-07-02T19:12:16.264Z</time>
      </trkpt>
      <trkpt lat="44.55065" lon="2.61643">
        <ele>478.48114013672</ele>
        <time>2020-07-02T19:12:17.523Z</time>
      </trkpt>
      <trkpt lat="44.55052" lon="2.61674">
        <ele>476.16900634766</ele>
        <time>2020-07-02T19:12:18.791Z</time>
      </trkpt>
      <trkpt lat="44.55008" lon="2.6172">
        <ele>472.2170715332</ele>
        <time>2020-07-02T19:12:20.077Z</time>
      </trkpt>
      <trkpt lat="44.54979" lon="2.61724">
        <ele>472.77938842773</ele>
        <time>2020-07-02T19:12:21.373Z</time>
      </trkpt>
      <trkpt lat="44.54937" lon="2.61749">
        <ele>470.16934204102</ele>
        <time>2020-07-02T19:12:22.684Z</time>
      </trkpt>
      <trkpt lat="44.54912" lon="2.61787">
        <ele>469.23526000977</ele>
        <time>2020-07-02T19:12:24.007Z</time>
      </trkpt>
      <trkpt lat="44.54878" lon="2.61783">
        <ele>471.55230712891</ele>
        <time>2020-07-02T19:12:25.342Z</time>
      </trkpt>
      <trkpt lat="44.54841" lon="2.61793">
        <ele>469.63388061523</ele>
        <time>2020-07-02T19:12:26.689Z</time>
      </trkpt>
      <trkpt lat="44.54817" lon="2.61809">
        <ele>466.89202880859</ele>
        <time>2020-07-02T19:12:28.045Z</time>
      </trkpt>
      <trkpt lat="44.54807" lon="2.61806">
        <ele>466.39001464844</ele>
        <time>2020-07-02T19:12:29.404Z</time>
      </trkpt>
      <trkpt lat="44.54792" lon="2.61778">
        <ele>466.9821472168</ele>
        <time>2020-07-02T19:12:30.772Z</time>
      </trkpt>
      <trkpt lat="44.54773" lon="2.61761">
        <ele>468.14706420898</ele>
        <time>2020-07-02T19:12:32.147Z</time>
      </trkpt>
      <trkpt lat="44.54749" lon="2.61781">
        <ele>468.34014892578</ele>
        <time>2020-07-02T19:12:33.532Z</time>
      </trkpt>
      <trkpt lat="44.54709" lon="2.6179">
        <ele>467.72198486328</ele>
        <time>2020-07-02T19:12:34.930Z</time>
      </trkpt>
      <trkpt lat="44.54717" lon="2.61852">
        <ele>463.44097900391</ele>
        <time>2020-07-02T19:12:36.343Z</time>
      </trkpt>
      <trkpt lat="44.54734" lon="2.61866">
        <ele>465.50341796875</ele>
        <time>2020-07-02T19:12:37.763Z</time>
      </trkpt>
      <trkpt lat="44.54753" lon="2.61845">
        <ele>463.39233398438</ele>
        <time>2020-07-02T19:12:39.191Z</time>
      </trkpt>
      <trkpt lat="44.54761" lon="2.61849">
        <ele>464.08743286133</ele>
        <time>2020-07-02T19:12:40.622Z</time>
      </trkpt>
      <trkpt lat="44.54777" lon="2.61874">
        <ele>467.43426513672</ele>
        <time>2020-07-02T19:12:42.060Z</time>
      </trkpt>
      <trkpt lat="44.54808" lon="2.61893">
        <ele>469.92568969727</ele>
        <time>2020-07-02T19:12:43.510Z</time>
      </trkpt>
      <trkpt lat="44.54822" lon="2.6192">
        <ele>473.0143737793</ele>
        <time>2020-07-02T19:12:44.968Z</time>
      </trkpt>
      <trkpt lat="44.54809" lon="2.61965">
        <ele>477.39541625977</ele>
        <time>2020-07-02T19:12:46.437Z</time>
      </trkpt>
      <trkpt lat="44.54793" lon="2.61991">
        <ele>485.23474121094</ele>
        <time>2020-07-02T19:12:47.914Z</time>
      </trkpt>
      <trkpt lat="44.54774" lon="2.62074">
        <ele>492.23303222656</ele>
        <time>2020-07-02T19:12:49.412Z</time>
      </trkpt>
      <trkpt lat="44.54766" lon="2.62084">
        <ele>494.22970581055</ele>
        <time>2020-07-02T19:12:50.914Z</time>
      </trkpt>
      <trkpt lat="44.54732" lon="2.62082">
        <ele>498.52911376953</ele>
        <time>2020-07-02T19:12:52.427Z</time>
      </trkpt>
      <trkpt lat="44.54677" lon="2.6211">
        <ele>504.4130859375</ele>
        <time>2020-07-02T19:12:53.960Z</time>
      </trkpt>
      <trkpt lat="44.54583" lon="2.621">
        <ele>509.77099609375</ele>
        <time>2020-07-02T19:12:55.524Z</time>
      </trkpt>
      <trkpt lat="44.54537" lon="2.62159">
        <ele>512.59600830078</ele>
        <time>2020-07-02T19:12:57.109Z</time>
      </trkpt>
      <trkpt lat="44.54508" lon="2.62335">
        <ele>528.41485595703</ele>
        <time>2020-07-02T19:12:58.737Z</time>
      </trkpt>
      <trkpt lat="44.54478" lon="2.62411">
        <ele>531.40667724609</ele>
        <time>2020-07-02T19:13:00.386Z</time>
      </trkpt>
      <trkpt lat="44.54475" lon="2.62482">
        <ele>534.66772460938</ele>
        <time>2020-07-02T19:13:02.052Z</time>
      </trkpt>
      <trkpt lat="44.54414" lon="2.62656">
        <ele>534.60284423828</ele>
        <time>2020-07-02T19:13:03.764Z</time>
      </trkpt>
      <trkpt lat="44.54386" lon="2.62702">
        <ele>535.60675048828</ele>
        <time>2020-07-02T19:13:05.490Z</time>
      </trkpt>
      <trkpt lat="44.54383" lon="2.62771">
        <ele>540.19635009766</ele>
        <time>2020-07-02T19:13:07.233Z</time>
      </trkpt>
      <trkpt lat="44.54438" lon="2.62859">
        <ele>547.27618408203</ele>
        <time>2020-07-02T19:13:09.004Z</time>
      </trkpt>
      <trkpt lat="44.5445" lon="2.62905">
        <ele>548.15289306641</ele>
        <time>2020-07-02T19:13:10.786Z</time>
      </trkpt>
      <trkpt lat="44.5445" lon="2.62988">
        <ele>548.59631347656</ele>
        <time>2020-07-02T19:13:12.588Z</time>
      </trkpt>
      <trkpt lat="44.54445" lon="2.63001">
        <ele>548.09692382812</ele>
        <time>2020-07-02T19:13:14.394Z</time>
      </trkpt>
      <trkpt lat="44.54426" lon="2.63017">
        <ele>545.14587402344</ele>
        <time>2020-07-02T19:13:16.207Z</time>
      </trkpt>
      <trkpt lat="44.54409" lon="2.6306">
        <ele>542.26812744141</ele>
        <time>2020-07-02T19:13:18.032Z</time>
      </trkpt>
      <trkpt lat="44.54413" lon="2.63082">
        <ele>542.73156738281</ele>
        <time>2020-07-02T19:13:19.862Z</time>
      </trkpt>
      <trkpt lat="44.54428" lon="2.63097">
        <ele>544.66796875</ele>
        <time>2020-07-02T19:13:21.698Z</time>
      </trkpt>
      <trkpt lat="44.54438" lon="2.63155">
        <ele>543.50946044922</ele>
        <time>2020-07-02T19:13:23.548Z</time>
      </trkpt>
      <trkpt lat="44.5446" lon="2.63203">
        <ele>543.46453857422</ele>
        <time>2020-07-02T19:13:25.412Z</time>
      </trkpt>
      <trkpt lat="44.54468" lon="2.63236">
        <ele>541.79113769531</ele>
        <time>2020-07-02T19:13:27.285Z</time>
      </trkpt>
      <trkpt lat="44.54456" lon="2.63231">
        <ele>541.09948730469</ele>
        <time>2020-07-02T19:13:29.162Z</time>
      </trkpt>
      <trkpt lat="44.54456" lon="2.63231">
        <ele>541.09643554688</ele>
        <time>2020-07-02T19:13:31.039Z</time>
      </trkpt>
      <trkpt lat="44.54456" lon="2.63231">
        <ele>541.09802246094</ele>
        <time>2020-07-02T19:13:32.916Z</time>
      </trkpt>
      <trkpt lat="44.54468" lon="2.63236">
        <ele>541.79113769531</ele>
        <time>2020-07-02T19:13:34.797Z</time>
      </trkpt>
      <trkpt lat="44.54543" lon="2.63366">
        <ele>543.70709228516</ele>
        <time>2020-07-02T19:13:36.718Z</time>
      </trkpt>
      <trkpt lat="44.5456" lon="2.63421">
        <ele>543.39251708984</ele>
        <time>2020-07-02T19:13:38.653Z</time>
      </trkpt>
      <trkpt lat="44.54542" lon="2.63462">
        <ele>542.935546875</ele>
        <time>2020-07-02T19:13:40.599Z</time>
      </trkpt>
      <trkpt lat="44.54533" lon="2.63518">
        <ele>545.46441650391</ele>
        <time>2020-07-02T19:13:42.559Z</time>
      </trkpt>
      <trkpt lat="44.54533" lon="2.63518">
        <ele>545.46307373047</ele>
        <time>2020-07-02T19:13:44.519Z</time>
      </trkpt>
      <trkpt lat="44.5448" lon="2.63651">
        <ele>540.67358398438</ele>
        <time>2020-07-02T19:13:46.515Z</time>
      </trkpt>
      <trkpt lat="44.5446" lon="2.63672">
        <ele>535.80187988281</ele>
        <time>2020-07-02T19:13:48.520Z</time>
      </trkpt>
      <trkpt lat="44.54442" lon="2.63761">
        <ele>538.24285888672</ele>
        <time>2020-07-02T19:13:50.547Z</time>
      </trkpt>
      <trkpt lat="44.54409" lon="2.63764">
        <ele>530.37774658203</ele>
        <time>2020-07-02T19:13:52.585Z</time>
      </trkpt>
      <trkpt lat="44.5437" lon="2.63787">
        <ele>523.05548095703</ele>
        <time>2020-07-02T19:13:54.637Z</time>
      </trkpt>
      <trkpt lat="44.54354" lon="2.63834">
        <ele>523.10784912109</ele>
        <time>2020-07-02T19:13:56.701Z</time>
      </trkpt>
      <trkpt lat="44.54349" lon="2.63897">
        <ele>519.99084472656</ele>
        <time>2020-07-02T19:13:58.780Z</time>
      </trkpt>
      <trkpt lat="44.54349" lon="2.63897">
        <ele>519.98913574219</ele>
        <time>2020-07-02T19:14:00.859Z</time>
      </trkpt>
      <trkpt lat="44.54335" lon="2.6392">
        <ele>520.595703125</ele>
        <time>2020-07-02T19:14:02.945Z</time>
      </trkpt>
      <trkpt lat="44.54295" lon="2.63949">
        <ele>516.64379882812</ele>
        <time>2020-07-02T19:14:05.046Z</time>
      </trkpt>
      <trkpt lat="44.54259" lon="2.64013">
        <ele>509.8274230957</ele>
        <time>2020-07-02T19:14:07.167Z</time>
      </trkpt>
      <trkpt lat="44.54244" lon="2.64056">
        <ele>506.01275634766</ele>
        <time>2020-07-02T19:14:09.299Z</time>
      </trkpt>
      <trkpt lat="44.54243" lon="2.64111">
        <ele>507.12356567383</ele>
        <time>2020-07-02T19:14:11.444Z</time>
      </trkpt>
      <trkpt lat="44.54231" lon="2.64157">
        <ele>507.98873901367</ele>
        <time>2020-07-02T19:14:13.601Z</time>
      </trkpt>
      <trkpt lat="44.54199" lon="2.64198">
        <ele>508.67175292969</ele>
        <time>2020-07-02T19:14:15.773Z</time>
      </trkpt>
      <trkpt lat="44.54166" lon="2.64297">
        <ele>509.4817199707</ele>
        <time>2020-07-02T19:14:17.971Z</time>
      </trkpt>
      <trkpt lat="44.54154" lon="2.64297">
        <ele>510.19088745117</ele>
        <time>2020-07-02T19:14:20.173Z</time>
      </trkpt>
      <trkpt lat="44.54141" lon="2.64326">
        <ele>516.79443359375</ele>
        <time>2020-07-02T19:14:22.383Z</time>
      </trkpt>
      <trkpt lat="44.54099" lon="2.64349">
        <ele>526.70294189453</ele>
        <time>2020-07-02T19:14:24.608Z</time>
      </trkpt>
      <trkpt lat="44.54091" lon="2.64378">
        <ele>533.26788330078</ele>
        <time>2020-07-02T19:14:26.840Z</time>
      </trkpt>
      <trkpt lat="44.54092" lon="2.64388">
        <ele>534.96221923828</ele>
        <time>2020-07-02T19:14:29.075Z</time>
      </trkpt>
      <trkpt lat="44.54092" lon="2.64388">
        <ele>534.97552490234</ele>
        <time>2020-07-02T19:14:31.310Z</time>
      </trkpt>
      <trkpt lat="44.54092" lon="2.64388">
        <ele>534.97094726562</ele>
        <time>2020-07-02T19:14:33.545Z</time>
      </trkpt>
      <trkpt lat="44.54092" lon="2.64388">
        <ele>534.96643066406</ele>
        <time>2020-07-02T19:14:35.780Z</time>
      </trkpt>
      <trkpt lat="44.54093" lon="2.64421">
        <ele>541.69079589844</ele>
        <time>2020-07-02T19:14:38.023Z</time>
      </trkpt>
      <trkpt lat="44.54093" lon="2.64421">
        <ele>541.69268798828</ele>
        <time>2020-07-02T19:14:40.266Z</time>
      </trkpt>
      <trkpt lat="44.54128" lon="2.64485">
        <ele>542.88446044922</ele>
        <time>2020-07-02T19:14:42.528Z</time>
      </trkpt>
      <trkpt lat="44.54129" lon="2.64511">
        <ele>544.69952392578</ele>
        <time>2020-07-02T19:14:44.796Z</time>
      </trkpt>
      <trkpt lat="44.54093" lon="2.64618">
        <ele>541.71569824219</ele>
        <time>2020-07-02T19:14:47.092Z</time>
      </trkpt>
      <trkpt lat="44.5403" lon="2.6468">
        <ele>540.392578125</ele>
        <time>2020-07-02T19:14:49.414Z</time>
      </trkpt>
      <trkpt lat="44.53987" lon="2.64684">
        <ele>542.15606689453</ele>
        <time>2020-07-02T19:14:51.750Z</time>
      </trkpt>
      <trkpt lat="44.53948" lon="2.64702">
        <ele>546.18707275391</ele>
        <time>2020-07-02T19:14:54.100Z</time>
      </trkpt>
      <trkpt lat="44.53877" lon="2.64776">
        <ele>547.53485107422</ele>
        <time>2020-07-02T19:14:56.480Z</time>
      </trkpt>
      <trkpt lat="44.53877" lon="2.64776">
        <ele>547.53564453125</ele>
        <time>2020-07-02T19:14:58.860Z</time>
      </trkpt>
      <trkpt lat="44.53854" lon="2.64817">
        <ele>546.98779296875</ele>
        <time>2020-07-02T19:15:01.252Z</time>
      </trkpt>
      <trkpt lat="44.53849" lon="2.64833">
        <ele>546.40850830078</ele>
        <time>2020-07-02T19:15:03.648Z</time>
      </trkpt>
      <trkpt lat="44.53845" lon="2.64846">
        <ele>546.2978515625</ele>
        <time>2020-07-02T19:15:06.048Z</time>
      </trkpt>
      <trkpt lat="44.53845" lon="2.64846">
        <ele>546.29754638672</ele>
        <time>2020-07-02T19:15:08.448Z</time>
      </trkpt>
      <trkpt lat="44.53856" lon="2.64889">
        <ele>547.23724365234</ele>
        <time>2020-07-02T19:15:10.859Z</time>
      </trkpt>
      <trkpt lat="44.53845" lon="2.64958">
        <ele>547.45330810547</ele>
        <time>2020-07-02T19:15:13.287Z</time>
      </trkpt>
      <trkpt lat="44.53847" lon="2.65007">
        <ele>547.80084228516</ele>
        <time>2020-07-02T19:15:15.726Z</time>
      </trkpt>
      <trkpt lat="44.53913" lon="2.65257">
        <ele>555.74145507812</ele>
        <time>2020-07-02T19:15:18.229Z</time>
      </trkpt>
      <trkpt lat="44.53913" lon="2.65257">
        <ele>555.74139404297</ele>
        <time>2020-07-02T19:15:20.732Z</time>
      </trkpt>
      <trkpt lat="44.53946" lon="2.65383">
        <ele>559.94952392578</ele>
        <time>2020-07-02T19:15:23.267Z</time>
      </trkpt>
      <trkpt lat="44.53944" lon="2.65457">
        <ele>558.33056640625</ele>
        <time>2020-07-02T19:15:25.820Z</time>
      </trkpt>
      <trkpt lat="44.53936" lon="2.65503">
        <ele>555.89135742188</ele>
        <time>2020-07-02T19:15:28.384Z</time>
      </trkpt>
      <trkpt lat="44.53933" lon="2.65586">
        <ele>551.04278564453</ele>
        <time>2020-07-02T19:15:30.968Z</time>
      </trkpt>
      <trkpt lat="44.53901" lon="2.65766">
        <ele>543.44036865234</ele>
        <time>2020-07-02T19:15:33.596Z</time>
      </trkpt>
      <trkpt lat="44.5388" lon="2.65836">
        <ele>542.603515625</ele>
        <time>2020-07-02T19:15:36.242Z</time>
      </trkpt>
      <trkpt lat="44.53876" lon="2.65877">
        <ele>542.48797607422</ele>
        <time>2020-07-02T19:15:38.898Z</time>
      </trkpt>
      <trkpt lat="44.53881" lon="2.65901">
        <ele>542.78405761719</ele>
        <time>2020-07-02T19:15:41.560Z</time>
      </trkpt>
      <trkpt lat="44.53925" lon="2.65978">
        <ele>541.59234619141</ele>
        <time>2020-07-02T19:15:44.245Z</time>
      </trkpt>
      <trkpt lat="44.53925" lon="2.65978">
        <ele>541.59210205078</ele>
        <time>2020-07-02T19:15:46.930Z</time>
      </trkpt>
      <trkpt lat="44.53994" lon="2.66079">
        <ele>534.5537109375</ele>
        <time>2020-07-02T19:15:49.649Z</time>
      </trkpt>
      <trkpt lat="44.54053" lon="2.66114">
        <ele>531.67028808594</ele>
        <time>2020-07-02T19:15:52.389Z</time>
      </trkpt>
      <trkpt lat="44.54087" lon="2.66239">
        <ele>528.50134277344</ele>
        <time>2020-07-02T19:15:55.161Z</time>
      </trkpt>
      <trkpt lat="44.54142" lon="2.66337">
        <ele>526.56921386719</ele>
        <time>2020-07-02T19:15:57.963Z</time>
      </trkpt>
      <trkpt lat="44.54165" lon="2.66365">
        <ele>526.15728759766</ele>
        <time>2020-07-02T19:16:00.775Z</time>
      </trkpt>
      <trkpt lat="44.54189" lon="2.66381">
        <ele>525.32061767578</ele>
        <time>2020-07-02T19:16:03.596Z</time>
      </trkpt>
      <trkpt lat="44.54209" lon="2.66413">
        <ele>524.42993164062</ele>
        <time>2020-07-02T19:16:06.427Z</time>
      </trkpt>
      <trkpt lat="44.54223" lon="2.66458">
        <ele>521.35778808594</ele>
        <time>2020-07-02T19:16:09.270Z</time>
      </trkpt>
      <trkpt lat="44.54235" lon="2.66547">
        <ele>515.38555908203</ele>
        <time>2020-07-02T19:16:12.134Z</time>
      </trkpt>
      <trkpt lat="44.54235" lon="2.66547">
        <ele>515.38677978516</ele>
        <time>2020-07-02T19:16:14.998Z</time>
      </trkpt>
      <trkpt lat="44.54237" lon="2.66595">
        <ele>512.29406738281</ele>
        <time>2020-07-02T19:16:17.874Z</time>
      </trkpt>
      <trkpt lat="44.54251" lon="2.66651">
        <ele>507.60852050781</ele>
        <time>2020-07-02T19:16:20.764Z</time>
      </trkpt>
      <trkpt lat="44.54252" lon="2.66709">
        <ele>506.10470581055</ele>
        <time>2020-07-02T19:16:23.668Z</time>
      </trkpt>
      <trkpt lat="44.54264" lon="2.66754">
        <ele>501.90060424805</ele>
        <time>2020-07-02T19:16:26.583Z</time>
      </trkpt>
      <trkpt lat="44.54353" lon="2.66838">
        <ele>482.19152832031</ele>
        <time>2020-07-02T19:16:29.534Z</time>
      </trkpt>
      <trkpt lat="44.54365" lon="2.66853">
        <ele>480.64682006836</ele>
        <time>2020-07-02T19:16:32.490Z</time>
      </trkpt>
      <trkpt lat="44.54383" lon="2.66931">
        <ele>473.34854125977</ele>
        <time>2020-07-02T19:16:35.466Z</time>
      </trkpt>
      <trkpt lat="44.54379" lon="2.67031">
        <ele>462.80654907227</ele>
        <time>2020-07-02T19:16:38.466Z</time>
      </trkpt>
      <trkpt lat="44.54371" lon="2.67051">
        <ele>458.91906738281</ele>
        <time>2020-07-02T19:16:41.471Z</time>
      </trkpt>
      <trkpt lat="44.54367" lon="2.67097">
        <ele>454.04376220703</ele>
        <time>2020-07-02T19:16:44.487Z</time>
      </trkpt>
      <trkpt lat="44.5436" lon="2.67104">
        <ele>452.51193237305</ele>
        <time>2020-07-02T19:16:47.506Z</time>
      </trkpt>
      <trkpt lat="44.5436" lon="2.67104">
        <ele>452.51373291016</ele>
        <time>2020-07-02T19:16:50.525Z</time>
      </trkpt>
      <trkpt lat="44.54355" lon="2.67063">
        <ele>454.55975341797</ele>
        <time>2020-07-02T19:16:53.554Z</time>
      </trkpt>
      <trkpt lat="44.54347" lon="2.6704">
        <ele>455.84701538086</ele>
        <time>2020-07-02T19:16:56.589Z</time>
      </trkpt>
      <trkpt lat="44.54307" lon="2.66989">
        <ele>454.91610717773</ele>
        <time>2020-07-02T19:16:59.642Z</time>
      </trkpt>
      <trkpt lat="44.54289" lon="2.66984">
        <ele>452.34310913086</ele>
        <time>2020-07-02T19:17:02.701Z</time>
      </trkpt>
      <trkpt lat="44.54245" lon="2.67009">
        <ele>442.44717407227</ele>
        <time>2020-07-02T19:17:05.776Z</time>
      </trkpt>
      <trkpt lat="44.54219" lon="2.67013">
        <ele>438.07055664062</ele>
        <time>2020-07-02T19:17:08.860Z</time>
      </trkpt>
      <trkpt lat="44.54175" lon="2.66986">
        <ele>438.05798339844</ele>
        <time>2020-07-02T19:17:11.960Z</time>
      </trkpt>
      <trkpt lat="44.54151" lon="2.66982">
        <ele>436.48754882812</ele>
        <time>2020-07-02T19:17:15.068Z</time>
      </trkpt>
      <trkpt lat="44.54107" lon="2.66975">
        <ele>431.41116333008</ele>
        <time>2020-07-02T19:17:18.190Z</time>
      </trkpt>
      <trkpt lat="44.54081" lon="2.66997">
        <ele>421.7421875</ele>
        <time>2020-07-02T19:17:21.323Z</time>
      </trkpt>
      <trkpt lat="44.54072" lon="2.66994">
        <ele>420.51931762695</ele>
        <time>2020-07-02T19:17:24.459Z</time>
      </trkpt>
      <trkpt lat="44.54043" lon="2.66947">
        <ele>421.04708862305</ele>
        <time>2020-07-02T19:17:27.609Z</time>
      </trkpt>
      <trkpt lat="44.54022" lon="2.66941">
        <ele>418.5244140625</ele>
        <time>2020-07-02T19:17:30.767Z</time>
      </trkpt>
      <trkpt lat="44.53995" lon="2.66948">
        <ele>413.99331665039</ele>
        <time>2020-07-02T19:17:33.934Z</time>
      </trkpt>
      <trkpt lat="44.53967" lon="2.66982">
        <ele>405.36978149414</ele>
        <time>2020-07-02T19:17:37.113Z</time>
      </trkpt>
      <trkpt lat="44.53957" lon="2.66983">
        <ele>403.82507324219</ele>
        <time>2020-07-02T19:17:40.295Z</time>
      </trkpt>
      <trkpt lat="44.53925" lon="2.66965">
        <ele>403.66442871094</ele>
        <time>2020-07-02T19:17:43.489Z</time>
      </trkpt>
      <trkpt lat="44.53913" lon="2.67019">
        <ele>396.1750793457</ele>
        <time>2020-07-02T19:17:46.696Z</time>
      </trkpt>
      <trkpt lat="44.53894" lon="2.6705">
        <ele>391.2751159668</ele>
        <time>2020-07-02T19:17:49.913Z</time>
      </trkpt>
      <trkpt lat="44.53891" lon="2.67065">
        <ele>388.98382568359</ele>
        <time>2020-07-02T19:17:53.134Z</time>
      </trkpt>
      <trkpt lat="44.5389" lon="2.67073">
        <ele>387.8896484375</ele>
        <time>2020-07-02T19:17:56.357Z</time>
      </trkpt>
      <trkpt lat="44.53897" lon="2.67086">
        <ele>386.91134643555</ele>
        <time>2020-07-02T19:17:59.584Z</time>
      </trkpt>
      <trkpt lat="44.53904" lon="2.67118">
        <ele>382.51843261719</ele>
        <time>2020-07-02T19:18:02.819Z</time>
      </trkpt>
      <trkpt lat="44.53901" lon="2.67179">
        <ele>375.91421508789</ele>
        <time>2020-07-02T19:18:06.068Z</time>
      </trkpt>
      <trkpt lat="44.53901" lon="2.67179">
        <ele>375.91561889648</ele>
        <time>2020-07-02T19:18:09.317Z</time>
      </trkpt>
      <trkpt lat="44.53901" lon="2.67179">
        <ele>375.91439819336</ele>
        <time>2020-07-02T19:18:12.566Z</time>
      </trkpt>
      <trkpt lat="44.539" lon="2.67189">
        <ele>375.1979675293</ele>
        <time>2020-07-02T19:18:15.818Z</time>
      </trkpt>
      <trkpt lat="44.53882" lon="2.67249">
        <ele>371.546875</ele>
        <time>2020-07-02T19:18:19.085Z</time>
      </trkpt>
      <trkpt lat="44.53883" lon="2.67291">
        <ele>368.92056274414</ele>
        <time>2020-07-02T19:18:22.362Z</time>
      </trkpt>
      <trkpt lat="44.53874" lon="2.67306">
        <ele>367.90362548828</ele>
        <time>2020-07-02T19:18:25.644Z</time>
      </trkpt>
      <trkpt lat="44.53822" lon="2.67337">
        <ele>377.90872192383</ele>
        <time>2020-07-02T19:18:28.945Z</time>
      </trkpt>
      <trkpt lat="44.53805" lon="2.67463">
        <ele>369.65194702148</ele>
        <time>2020-07-02T19:18:32.276Z</time>
      </trkpt>
      <trkpt lat="44.53802" lon="2.67516">
        <ele>363.87826538086</ele>
        <time>2020-07-02T19:18:35.620Z</time>
      </trkpt>
      <trkpt lat="44.5383" lon="2.6771">
        <ele>353.02593994141</ele>
        <time>2020-07-02T19:18:39.011Z</time>
      </trkpt>
      <trkpt lat="44.5383" lon="2.6771">
        <ele>353.02593994141</ele>
        <time>2020-07-02T19:18:42.402Z</time>
      </trkpt>
      <trkpt lat="44.5384" lon="2.67731">
        <ele>352.48034667969</ele>
        <time>2020-07-02T19:18:45.799Z</time>
      </trkpt>
      <trkpt lat="44.53865" lon="2.67833">
        <ele>350.06225585938</ele>
        <time>2020-07-02T19:18:49.222Z</time>
      </trkpt>
      <trkpt lat="44.53902" lon="2.67909">
        <ele>346.12936401367</ele>
        <time>2020-07-02T19:18:52.667Z</time>
      </trkpt>
      <trkpt lat="44.53918" lon="2.6796">
        <ele>344.7077331543</ele>
        <time>2020-07-02T19:18:56.125Z</time>
      </trkpt>
      <trkpt lat="44.53954" lon="2.67993">
        <ele>342.71716308594</ele>
        <time>2020-07-02T19:18:59.598Z</time>
      </trkpt>
      <trkpt lat="44.53984" lon="2.68001">
        <ele>339.02377319336</ele>
        <time>2020-07-02T19:19:03.081Z</time>
      </trkpt>
      <trkpt lat="44.54046" lon="2.6798">
        <ele>332.97723388672</ele>
        <time>2020-07-02T19:19:06.585Z</time>
      </trkpt>
      <trkpt lat="44.54068" lon="2.6798">
        <ele>331.94744873047</ele>
        <time>2020-07-02T19:19:10.096Z</time>
      </trkpt>
      <trkpt lat="44.54089" lon="2.67985">
        <ele>330.78894042969</ele>
        <time>2020-07-02T19:19:13.615Z</time>
      </trkpt>
      <trkpt lat="44.54164" lon="2.68037">
        <ele>326.25769042969</ele>
        <time>2020-07-02T19:19:17.162Z</time>
      </trkpt>
      <trkpt lat="44.54205" lon="2.68056">
        <ele>325.09967041016</ele>
        <time>2020-07-02T19:19:20.723Z</time>
      </trkpt>
      <trkpt lat="44.54275" lon="2.6805">
        <ele>329.72924804688</ele>
        <time>2020-07-02T19:19:24.307Z</time>
      </trkpt>
      <trkpt lat="44.54336" lon="2.68059">
        <ele>330.52691650391</ele>
        <time>2020-07-02T19:19:27.912Z</time>
      </trkpt>
      <trkpt lat="44.54395" lon="2.6814">
        <ele>326.03256225586</ele>
        <time>2020-07-02T19:19:31.544Z</time>
      </trkpt>
      <trkpt lat="44.54395" lon="2.6814">
        <ele>326.03244018555</ele>
        <time>2020-07-02T19:19:35.176Z</time>
      </trkpt>
      <trkpt lat="44.5442" lon="2.68176">
        <ele>325.11053466797</ele>
        <time>2020-07-02T19:19:38.820Z</time>
      </trkpt>
      <trkpt lat="44.54404" lon="2.68191">
        <ele>323.64749145508</ele>
        <time>2020-07-02T19:19:42.471Z</time>
      </trkpt>
      <trkpt lat="44.54404" lon="2.68191">
        <ele>323.63912963867</ele>
        <time>2020-07-02T19:19:46.122Z</time>
      </trkpt>
      <trkpt lat="44.5442" lon="2.68176">
        <ele>325.11053466797</ele>
        <time>2020-07-02T19:19:49.779Z</time>
      </trkpt>
      <trkpt lat="44.54513" lon="2.68162">
        <ele>333.37448120117</ele>
        <time>2020-07-02T19:19:53.467Z</time>
      </trkpt>
      <trkpt lat="44.5451" lon="2.68154">
        <ele>334.41717529297</ele>
        <time>2020-07-02T19:19:57.157Z</time>
      </trkpt>
      <trkpt lat="44.54495" lon="2.68154">
        <ele>332.97543334961</ele>
        <time>2020-07-02T19:20:00.852Z</time>
      </trkpt>
      <trkpt lat="44.54482" lon="2.6814">
        <ele>334.24981689453</ele>
        <time>2020-07-02T19:20:04.553Z</time>
      </trkpt>
      <trkpt lat="44.54482" lon="2.6814">
        <ele>334.25061035156</ele>
        <time>2020-07-02T19:20:08.254Z</time>
      </trkpt>
      <trkpt lat="44.54452" lon="2.68108">
        <ele>337.15979003906</ele>
        <time>2020-07-02T19:20:11.968Z</time>
      </trkpt>
      <trkpt lat="44.54454" lon="2.68098">
        <ele>339.29580688477</ele>
        <time>2020-07-02T19:20:15.684Z</time>
      </trkpt>
      <trkpt lat="44.54461" lon="2.68094">
        <ele>340.99127197266</ele>
        <time>2020-07-02T19:20:19.403Z</time>
      </trkpt>
      <trkpt lat="44.54495" lon="2.68107">
        <ele>344.80151367188</ele>
        <time>2020-07-02T19:20:23.133Z</time>
      </trkpt>
      <trkpt lat="44.54532" lon="2.68123">
        <ele>348.5989074707</ele>
        <time>2020-07-02T19:20:26.876Z</time>
      </trkpt>
      <trkpt lat="44.54498" lon="2.68074">
        <ele>356.19891357422</ele>
        <time>2020-07-02T19:20:30.636Z</time>
      </trkpt>
      <trkpt lat="44.54508" lon="2.6807">
        <ele>359.85470581055</ele>
        <time>2020-07-02T19:20:34.399Z</time>
      </trkpt>
      <trkpt lat="44.54531" lon="2.6809">
        <ele>359.11569213867</ele>
        <time>2020-07-02T19:20:38.171Z</time>
      </trkpt>
      <trkpt lat="44.54586" lon="2.68083">
        <ele>377.12307739258</ele>
        <time>2020-07-02T19:20:41.962Z</time>
      </trkpt>
      <trkpt lat="44.54586" lon="2.68083">
        <ele>377.17910766602</ele>
        <time>2020-07-02T19:20:45.753Z</time>
      </trkpt>
      <trkpt lat="44.54602" lon="2.68081">
        <ele>382.73959350586</ele>
        <time>2020-07-02T19:20:49.549Z</time>
      </trkpt>
      <trkpt lat="44.54602" lon="2.68081">
        <ele>382.73718261719</ele>
        <time>2020-07-02T19:20:53.345Z</time>
      </trkpt>
      <trkpt lat="44.54636" lon="2.68093">
        <ele>386.20413208008</ele>
        <time>2020-07-02T19:20:57.153Z</time>
      </trkpt>
      <trkpt lat="44.54636" lon="2.68093">
        <ele>386.2135925293</ele>
        <time>2020-07-02T19:21:00.961Z</time>
      </trkpt>
      <trkpt lat="44.54636" lon="2.68093">
        <ele>386.21380615234</ele>
        <time>2020-07-02T19:21:04.769Z</time>
      </trkpt>
      <trkpt lat="44.54658" lon="2.681">
        <ele>387.64163208008</ele>
        <time>2020-07-02T19:21:08.584Z</time>
      </trkpt>
      <trkpt lat="44.5469" lon="2.68091">
        <ele>398.50598144531</ele>
        <time>2020-07-02T19:21:12.410Z</time>
      </trkpt>
      <trkpt lat="44.54716" lon="2.68103">
        <ele>399.64617919922</ele>
        <time>2020-07-02T19:21:16.245Z</time>
      </trkpt>
      <trkpt lat="44.54716" lon="2.68103">
        <ele>399.65756225586</ele>
        <time>2020-07-02T19:21:20.080Z</time>
      </trkpt>
      <trkpt lat="44.54716" lon="2.68103">
        <ele>399.6628112793</ele>
        <time>2020-07-02T19:21:23.915Z</time>
      </trkpt>
      <trkpt lat="44.54722" lon="2.68106">
        <ele>399.64370727539</ele>
        <time>2020-07-02T19:21:27.752Z</time>
      </trkpt>
      <trkpt lat="44.54735" lon="2.68103">
        <ele>399.79815673828</ele>
        <time>2020-07-02T19:21:31.594Z</time>
      </trkpt>
      <trkpt lat="44.5476" lon="2.68056">
        <ele>410.47463989258</ele>
        <time>2020-07-02T19:21:35.450Z</time>
      </trkpt>
      <trkpt lat="44.54813" lon="2.67896">
        <ele>418.02679443359</ele>
        <time>2020-07-02T19:21:39.348Z</time>
      </trkpt>
      <trkpt lat="44.54819" lon="2.6785">
        <ele>425.16006469727</ele>
        <time>2020-07-02T19:21:43.257Z</time>
      </trkpt>
      <trkpt lat="44.54832" lon="2.67821">
        <ele>424.25177001953</ele>
        <time>2020-07-02T19:21:47.174Z</time>
      </trkpt>
      <trkpt lat="44.54896" lon="2.67753">
        <ele>415.21194458008</ele>
        <time>2020-07-02T19:21:51.118Z</time>
      </trkpt>
      <trkpt lat="44.5493" lon="2.67747">
        <ele>398.29302978516</ele>
        <time>2020-07-02T19:21:55.074Z</time>
      </trkpt>
      <trkpt lat="44.54983" lon="2.67704">
        <ele>386.76989746094</ele>
        <time>2020-07-02T19:21:59.050Z</time>
      </trkpt>
      <trkpt lat="44.55026" lon="2.67684">
        <ele>368.92755126953</ele>
        <time>2020-07-02T19:22:03.041Z</time>
      </trkpt>
      <trkpt lat="44.55043" lon="2.67668">
        <ele>365.6178894043</ele>
        <time>2020-07-02T19:22:07.039Z</time>
      </trkpt>
      <trkpt lat="44.55065" lon="2.67637">
        <ele>365.96545410156</ele>
        <time>2020-07-02T19:22:11.047Z</time>
      </trkpt>
      <trkpt lat="44.55104" lon="2.67558">
        <ele>361.05081176758</ele>
        <time>2020-07-02T19:22:15.078Z</time>
      </trkpt>
      <trkpt lat="44.55121" lon="2.67544">
        <ele>355.41265869141</ele>
        <time>2020-07-02T19:22:19.116Z</time>
      </trkpt>
      <trkpt lat="44.55121" lon="2.67544">
        <ele>355.41546630859</ele>
        <time>2020-07-02T19:22:23.154Z</time>
      </trkpt>
      <trkpt lat="44.55155" lon="2.67494">
        <ele>353.71426391602</ele>
        <time>2020-07-02T19:22:27.208Z</time>
      </trkpt>
      <trkpt lat="44.55155" lon="2.67493">
        <ele>353.71691894531</ele>
        <time>2020-07-02T19:22:31.262Z</time>
      </trkpt>
      <trkpt lat="44.55155" lon="2.67493">
        <ele>353.71853637695</ele>
        <time>2020-07-02T19:22:35.316Z</time>
      </trkpt>
      <trkpt lat="44.55155" lon="2.67493">
        <ele>353.71691894531</ele>
        <time>2020-07-02T19:22:39.370Z</time>
      </trkpt>
      <trkpt lat="44.55178" lon="2.67459">
        <ele>353.96850585938</ele>
        <time>2020-07-02T19:22:43.436Z</time>
      </trkpt>
      <trkpt lat="44.55178" lon="2.67459">
        <ele>353.97232055664</ele>
        <time>2020-07-02T19:22:47.502Z</time>
      </trkpt>
      <trkpt lat="44.55204" lon="2.67431">
        <ele>351.34683227539</ele>
        <time>2020-07-02T19:22:51.578Z</time>
      </trkpt>
      <trkpt lat="44.55237" lon="2.67369">
        <ele>342.11389160156</ele>
        <time>2020-07-02T19:22:55.673Z</time>
      </trkpt>
      <trkpt lat="44.55246" lon="2.67318">
        <ele>333.48370361328</ele>
        <time>2020-07-02T19:22:59.781Z</time>
      </trkpt>
      <trkpt lat="44.55245" lon="2.67281">
        <ele>326.75991821289</ele>
        <time>2020-07-02T19:23:03.897Z</time>
      </trkpt>
      <trkpt lat="44.55243" lon="2.67222">
        <ele>320.69818115234</ele>
        <time>2020-07-02T19:23:08.027Z</time>
      </trkpt>
      <trkpt lat="44.55246" lon="2.67211">
        <ele>318.70068359375</ele>
        <time>2020-07-02T19:23:12.160Z</time>
      </trkpt>
      <trkpt lat="44.5522" lon="2.6721">
        <ele>323.45458984375</ele>
        <time>2020-07-02T19:23:16.302Z</time>
      </trkpt>
      <trkpt lat="44.55084" lon="2.6719">
        <ele>341.97149658203</ele>
        <time>2020-07-02T19:23:20.489Z</time>
      </trkpt>
      <trkpt lat="44.55043" lon="2.67179">
        <ele>344.55276489258</ele>
        <time>2020-07-02T19:23:24.690Z</time>
      </trkpt>
      <trkpt lat="44.5502" lon="2.6715">
        <ele>338.01275634766</ele>
        <time>2020-07-02T19:23:28.901Z</time>
      </trkpt>
      <trkpt lat="44.55004" lon="2.67143">
        <ele>336.62573242188</ele>
        <time>2020-07-02T19:23:33.118Z</time>
      </trkpt>
      <trkpt lat="44.54903" lon="2.67227">
        <ele>356.36004638672</ele>
        <time>2020-07-02T19:23:37.374Z</time>
      </trkpt>
      <trkpt lat="44.54792" lon="2.67261">
        <ele>377.71600341797</ele>
        <time>2020-07-02T19:23:41.668Z</time>
      </trkpt>
      <trkpt lat="44.54721" lon="2.67231">
        <ele>389.59805297852</ele>
        <time>2020-07-02T19:23:45.987Z</time>
      </trkpt>
      <trkpt lat="44.54694" lon="2.67203">
        <ele>393.64346313477</ele>
        <time>2020-07-02T19:23:50.317Z</time>
      </trkpt>
      <trkpt lat="44.54679" lon="2.67119">
        <ele>390.24606323242</ele>
        <time>2020-07-02T19:23:54.668Z</time>
      </trkpt>
      <trkpt lat="44.54665" lon="2.67077">
        <ele>394.80084228516</ele>
        <time>2020-07-02T19:23:59.030Z</time>
      </trkpt>
      <trkpt lat="44.54667" lon="2.66997">
        <ele>387.62460327148</ele>
        <time>2020-07-02T19:24:03.411Z</time>
      </trkpt>
      <trkpt lat="44.54657" lon="2.66862">
        <ele>384.55166625977</ele>
        <time>2020-07-02T19:24:07.824Z</time>
      </trkpt>
      <trkpt lat="44.54638" lon="2.66825">
        <ele>390.89056396484</ele>
        <time>2020-07-02T19:24:12.248Z</time>
      </trkpt>
      <trkpt lat="44.54602" lon="2.66717">
        <ele>394.02487182617</ele>
        <time>2020-07-02T19:24:16.700Z</time>
      </trkpt>
      <trkpt lat="44.54604" lon="2.66683">
        <ele>388.55407714844</ele>
        <time>2020-07-02T19:24:21.160Z</time>
      </trkpt>
      <trkpt lat="44.54591" lon="2.66643">
        <ele>390.33102416992</ele>
        <time>2020-07-02T19:24:25.631Z</time>
      </trkpt>
      <trkpt lat="44.54557" lon="2.66569">
        <ele>404.26330566406</ele>
        <time>2020-07-02T19:24:30.123Z</time>
      </trkpt>
      <trkpt lat="44.54572" lon="2.66549">
        <ele>399.26879882812</ele>
        <time>2020-07-02T19:24:34.622Z</time>
      </trkpt>
      <trkpt lat="44.54593" lon="2.66565">
        <ele>388.03863525391</ele>
        <time>2020-07-02T19:24:39.129Z</time>
      </trkpt>
      <trkpt lat="44.54594" lon="2.66565">
        <ele>387.94485473633</ele>
        <time>2020-07-02T19:24:43.636Z</time>
      </trkpt>
      <trkpt lat="44.54594" lon="2.66565">
        <ele>387.93640136719</ele>
        <time>2020-07-02T19:24:48.143Z</time>
      </trkpt>
      <trkpt lat="44.54642" lon="2.66599">
        <ele>369.63806152344</ele>
        <time>2020-07-02T19:24:52.668Z</time>
      </trkpt>
      <trkpt lat="44.54664" lon="2.66586">
        <ele>371.1672668457</ele>
        <time>2020-07-02T19:24:57.201Z</time>
      </trkpt>
      <trkpt lat="44.54711" lon="2.66521">
        <ele>393.25378417969</ele>
        <time>2020-07-02T19:25:01.756Z</time>
      </trkpt>
      <trkpt lat="44.54719" lon="2.66521">
        <ele>390.82089233398</ele>
        <time>2020-07-02T19:25:06.314Z</time>
      </trkpt>
      <trkpt lat="44.54753" lon="2.66474">
        <ele>403.40710449219</ele>
        <time>2020-07-02T19:25:10.888Z</time>
      </trkpt>
      <trkpt lat="44.54772" lon="2.66468">
        <ele>403.57946777344</ele>
        <time>2020-07-02T19:25:15.468Z</time>
      </trkpt>
      <trkpt lat="44.54797" lon="2.66484">
        <ele>391.61099243164</ele>
        <time>2020-07-02T19:25:20.057Z</time>
      </trkpt>
      <trkpt lat="44.5484" lon="2.66444">
        <ele>406.185546875</ele>
        <time>2020-07-02T19:25:24.663Z</time>
      </trkpt>
      <trkpt lat="44.54855" lon="2.66438">
        <ele>407.78173828125</ele>
        <time>2020-07-02T19:25:29.275Z</time>
      </trkpt>
      <trkpt lat="44.54866" lon="2.66453">
        <ele>398.56506347656</ele>
        <time>2020-07-02T19:25:33.892Z</time>
      </trkpt>
      <trkpt lat="44.54906" lon="2.66455">
        <ele>395.19577026367</ele>
        <time>2020-07-02T19:25:38.522Z</time>
      </trkpt>
      <trkpt lat="44.54945" lon="2.66433">
        <ele>399.48229980469</ele>
        <time>2020-07-02T19:25:43.166Z</time>
      </trkpt>
      <trkpt lat="44.54956" lon="2.66416">
        <ele>404.55145263672</ele>
        <time>2020-07-02T19:25:47.816Z</time>
      </trkpt>
      <trkpt lat="44.5497" lon="2.66335">
        <ele>429.28631591797</ele>
        <time>2020-07-02T19:25:52.486Z</time>
      </trkpt>
      <trkpt lat="44.54988" lon="2.66328">
        <ele>424.90966796875</ele>
        <time>2020-07-02T19:25:57.162Z</time>
      </trkpt>
      <trkpt lat="44.55006" lon="2.66335">
        <ele>417.90704345703</ele>
        <time>2020-07-02T19:26:01.844Z</time>
      </trkpt>
      <trkpt lat="44.55014" lon="2.6635">
        <ele>410.52352905273</ele>
        <time>2020-07-02T19:26:06.530Z</time>
      </trkpt>
      <trkpt lat="44.55031" lon="2.66354">
        <ele>403.67538452148</ele>
        <time>2020-07-02T19:26:11.222Z</time>
      </trkpt>
      <trkpt lat="44.55045" lon="2.66338">
        <ele>406.34115600586</ele>
        <time>2020-07-02T19:26:15.920Z</time>
      </trkpt>
      <trkpt lat="44.55052" lon="2.66281">
        <ele>424.33166503906</ele>
        <time>2020-07-02T19:26:20.632Z</time>
      </trkpt>
      <trkpt lat="44.55064" lon="2.66264">
        <ele>427.78149414062</ele>
        <time>2020-07-02T19:26:25.350Z</time>
      </trkpt>
      <trkpt lat="44.55113" lon="2.66288">
        <ele>411.16314697266</ele>
        <time>2020-07-02T19:26:30.085Z</time>
      </trkpt>
      <trkpt lat="44.55131" lon="2.66281">
        <ele>410.20397949219</ele>
        <time>2020-07-02T19:26:34.826Z</time>
      </trkpt>
      <trkpt lat="44.55149" lon="2.66285">
        <ele>405.69860839844</ele>
        <time>2020-07-02T19:26:39.573Z</time>
      </trkpt>
      <trkpt lat="44.55197" lon="2.66253">
        <ele>412.2121887207</ele>
        <time>2020-07-02T19:26:44.338Z</time>
      </trkpt>
      <trkpt lat="44.55211" lon="2.66234">
        <ele>410.19046020508</ele>
        <time>2020-07-02T19:26:49.110Z</time>
      </trkpt>
      <trkpt lat="44.55211" lon="2.66199">
        <ele>414.86315917969</ele>
        <time>2020-07-02T19:26:53.890Z</time>
      </trkpt>
      <trkpt lat="44.55194" lon="2.66172">
        <ele>424.84716796875</ele>
        <time>2020-07-02T19:26:58.679Z</time>
      </trkpt>
      <trkpt lat="44.55158" lon="2.66073">
        <ele>432.10781860352</ele>
        <time>2020-07-02T19:27:03.494Z</time>
      </trkpt>
      <trkpt lat="44.55128" lon="2.6601">
        <ele>443.94241333008</ele>
        <time>2020-07-02T19:27:08.327Z</time>
      </trkpt>
      <trkpt lat="44.55135" lon="2.65903">
        <ele>434.86740112305</ele>
        <time>2020-07-02T19:27:13.186Z</time>
      </trkpt>
      <trkpt lat="44.55116" lon="2.65817">
        <ele>435.16021728516</ele>
        <time>2020-07-02T19:27:18.067Z</time>
      </trkpt>
      <trkpt lat="44.55114" lon="2.65793">
        <ele>430.55187988281</ele>
        <time>2020-07-02T19:27:22.953Z</time>
      </trkpt>
      <trkpt lat="44.55085" lon="2.65736">
        <ele>431.18862915039</ele>
        <time>2020-07-02T19:27:27.856Z</time>
      </trkpt>
      <trkpt lat="44.55091" lon="2.65655">
        <ele>424.94287109375</ele>
        <time>2020-07-02T19:27:32.778Z</time>
      </trkpt>
      <trkpt lat="44.55083" lon="2.65605">
        <ele>431.16821289062</ele>
        <time>2020-07-02T19:27:37.713Z</time>
      </trkpt>
      <trkpt lat="44.55102" lon="2.65603">
        <ele>424.37155151367</ele>
        <time>2020-07-02T19:27:42.654Z</time>
      </trkpt>
      <trkpt lat="44.55171" lon="2.657">
        <ele>414.27239990234</ele>
        <time>2020-07-02T19:27:47.627Z</time>
      </trkpt>
      <trkpt lat="44.55258" lon="2.65863">
        <ele>402.74398803711</ele>
        <time>2020-07-02T19:27:52.649Z</time>
      </trkpt>
      <trkpt lat="44.55264" lon="2.65895">
        <ele>397.33755493164</ele>
        <time>2020-07-02T19:27:57.679Z</time>
      </trkpt>
      <trkpt lat="44.5529" lon="2.65955">
        <ele>389.75036621094</ele>
        <time>2020-07-02T19:28:02.726Z</time>
      </trkpt>
      <trkpt lat="44.55338" lon="2.66">
        <ele>392.76251220703</ele>
        <time>2020-07-02T19:28:07.792Z</time>
      </trkpt>
      <trkpt lat="44.55376" lon="2.65987">
        <ele>406.46038818359</ele>
        <time>2020-07-02T19:28:12.871Z</time>
      </trkpt>
      <trkpt lat="44.55397" lon="2.66002">
        <ele>405.4563293457</ele>
        <time>2020-07-02T19:28:17.958Z</time>
      </trkpt>
      <trkpt lat="44.55406" lon="2.6603">
        <ele>395.00567626953</ele>
        <time>2020-07-02T19:28:23.052Z</time>
      </trkpt>
      <trkpt lat="44.5543" lon="2.66043">
        <ele>393.88577270508</ele>
        <time>2020-07-02T19:28:28.155Z</time>
      </trkpt>
      <trkpt lat="44.55499" lon="2.66032">
        <ele>401.0856628418</ele>
        <time>2020-07-02T19:28:33.281Z</time>
      </trkpt>
      <trkpt lat="44.55553" lon="2.65987">
        <ele>414.88412475586</ele>
        <time>2020-07-02T19:28:38.428Z</time>
      </trkpt>
      <trkpt lat="44.5569" lon="2.65898">
        <ele>418.32534790039</ele>
        <time>2020-07-02T19:28:43.625Z</time>
      </trkpt>
      <trkpt lat="44.55707" lon="2.65879">
        <ele>420.2326965332</ele>
        <time>2020-07-02T19:28:48.830Z</time>
      </trkpt>
      <trkpt lat="44.55717" lon="2.65851">
        <ele>425.16836547852</ele>
        <time>2020-07-02T19:28:54.042Z</time>
      </trkpt>
      <trkpt lat="44.55721" lon="2.65791">
        <ele>433.12698364258</ele>
        <time>2020-07-02T19:28:59.268Z</time>
      </trkpt>
      <trkpt lat="44.55742" lon="2.65751">
        <ele>433.41653442383</ele>
        <time>2020-07-02T19:29:04.506Z</time>
      </trkpt>
      <trkpt lat="44.55782" lon="2.65753">
        <ele>419.58877563477</ele>
        <time>2020-07-02T19:29:09.757Z</time>
      </trkpt>
      <trkpt lat="44.5581" lon="2.65767">
        <ele>412.02770996094</ele>
        <time>2020-07-02T19:29:15.018Z</time>
      </trkpt>
      <trkpt lat="44.5581" lon="2.65767">
        <ele>411.97250366211</ele>
        <time>2020-07-02T19:29:20.279Z</time>
      </trkpt>
      <trkpt lat="44.5581" lon="2.65767">
        <ele>411.97207641602</ele>
        <time>2020-07-02T19:29:25.540Z</time>
      </trkpt>
      <trkpt lat="44.55829" lon="2.65777">
        <ele>407.23864746094</ele>
        <time>2020-07-02T19:29:30.808Z</time>
      </trkpt>
      <trkpt lat="44.55927" lon="2.65722">
        <ele>422.79321289062</ele>
        <time>2020-07-02T19:29:36.111Z</time>
      </trkpt>
      <trkpt lat="44.56043" lon="2.65646">
        <ele>432.67517089844</ele>
        <time>2020-07-02T19:29:41.457Z</time>
      </trkpt>
      <trkpt lat="44.56152" lon="2.65533">
        <ele>436.55722045898</ele>
        <time>2020-07-02T19:29:46.848Z</time>
      </trkpt>
      <trkpt lat="44.5616" lon="2.65518">
        <ele>435.1155090332</ele>
        <time>2020-07-02T19:29:52.244Z</time>
      </trkpt>
      <trkpt lat="44.56157" lon="2.655">
        <ele>436.13171386719</ele>
        <time>2020-07-02T19:29:57.644Z</time>
      </trkpt>
      <trkpt lat="44.5607" lon="2.65438">
        <ele>445.88223266602</ele>
        <time>2020-07-02T19:30:03.077Z</time>
      </trkpt>
      <trkpt lat="44.56013" lon="2.65386">
        <ele>457.40515136719</ele>
        <time>2020-07-02T19:30:08.532Z</time>
      </trkpt>
      <trkpt lat="44.55999" lon="2.65365">
        <ele>460.90646362305</ele>
        <time>2020-07-02T19:30:13.994Z</time>
      </trkpt>
      <trkpt lat="44.56003" lon="2.65341">
        <ele>459.10430908203</ele>
        <time>2020-07-02T19:30:19.462Z</time>
      </trkpt>
      <trkpt lat="44.56053" lon="2.65321">
        <ele>447.375</ele>
        <time>2020-07-02T19:30:24.947Z</time>
      </trkpt>
      <trkpt lat="44.56103" lon="2.65288">
        <ele>437.79788208008</ele>
        <time>2020-07-02T19:30:30.451Z</time>
      </trkpt>
      <trkpt lat="44.56144" lon="2.65282">
        <ele>425.05145263672</ele>
        <time>2020-07-02T19:30:35.968Z</time>
      </trkpt>
      <trkpt lat="44.56176" lon="2.65264">
        <ele>418.71105957031</ele>
        <time>2020-07-02T19:30:41.497Z</time>
      </trkpt>
      <trkpt lat="44.56213" lon="2.65218">
        <ele>414.06771850586</ele>
        <time>2020-07-02T19:30:47.042Z</time>
      </trkpt>
      <trkpt lat="44.56213" lon="2.65218">
        <ele>414.03689575195</ele>
        <time>2020-07-02T19:30:52.587Z</time>
      </trkpt>
      <trkpt lat="44.56213" lon="2.65218">
        <ele>414.0348815918</ele>
        <time>2020-07-02T19:30:58.132Z</time>
      </trkpt>
      <trkpt lat="44.56213" lon="2.65218">
        <ele>414.03085327148</ele>
        <time>2020-07-02T19:31:03.677Z</time>
      </trkpt>
      <trkpt lat="44.56219" lon="2.65211">
        <ele>412.92462158203</ele>
        <time>2020-07-02T19:31:09.225Z</time>
      </trkpt>
      <trkpt lat="44.56205" lon="2.65096">
        <ele>417.84066772461</ele>
        <time>2020-07-02T19:31:14.801Z</time>
      </trkpt>
      <trkpt lat="44.56181" lon="2.64965">
        <ele>415.71224975586</ele>
        <time>2020-07-02T19:31:20.409Z</time>
      </trkpt>
      <trkpt lat="44.56216" lon="2.6506">
        <ele>408.09683227539</ele>
        <time>2020-07-02T19:31:26.043Z</time>
      </trkpt>
      <trkpt lat="44.56233" lon="2.65083">
        <ele>402.21411132812</ele>
        <time>2020-07-02T19:31:31.684Z</time>
      </trkpt>
      <trkpt lat="44.56256" lon="2.65134">
        <ele>392.77160644531</ele>
        <time>2020-07-02T19:31:37.340Z</time>
      </trkpt>
      <trkpt lat="44.56276" lon="2.65225">
        <ele>383.66018676758</ele>
        <time>2020-07-02T19:31:43.019Z</time>
      </trkpt>
      <trkpt lat="44.56256" lon="2.65276">
        <ele>386.68835449219</ele>
        <time>2020-07-02T19:31:48.711Z</time>
      </trkpt>
      <trkpt lat="44.56207" lon="2.65345">
        <ele>390.32705688477</ele>
        <time>2020-07-02T19:31:54.426Z</time>
      </trkpt>
      <trkpt lat="44.56203" lon="2.65362">
        <ele>392.48962402344</ele>
        <time>2020-07-02T19:32:00.146Z</time>
      </trkpt>
      <trkpt lat="44.56275" lon="2.65365">
        <ele>373.98754882812</ele>
        <time>2020-07-02T19:32:05.890Z</time>
      </trkpt>
      <trkpt lat="44.56319" lon="2.65349">
        <ele>361.31890869141</ele>
        <time>2020-07-02T19:32:11.649Z</time>
      </trkpt>
      <trkpt lat="44.56378" lon="2.65341">
        <ele>344.27590942383</ele>
        <time>2020-07-02T19:32:17.428Z</time>
      </trkpt>
      <trkpt lat="44.5643" lon="2.65377">
        <ele>335.90881347656</ele>
        <time>2020-07-02T19:32:23.226Z</time>
      </trkpt>
      <trkpt lat="44.56429" lon="2.65369">
        <ele>335.26516723633</ele>
        <time>2020-07-02T19:32:29.026Z</time>
      </trkpt>
      <trkpt lat="44.56353" lon="2.65302">
        <ele>350.97891235352</ele>
        <time>2020-07-02T19:32:34.856Z</time>
      </trkpt>
      <trkpt lat="44.56348" lon="2.65281">
        <ele>352.49786376953</ele>
        <time>2020-07-02T19:32:40.691Z</time>
      </trkpt>
      <trkpt lat="44.56352" lon="2.65228">
        <ele>349.82632446289</ele>
        <time>2020-07-02T19:32:46.539Z</time>
      </trkpt>
      <trkpt lat="44.56347" lon="2.65154">
        <ele>350.18399047852</ele>
        <time>2020-07-02T19:32:52.405Z</time>
      </trkpt>
      <trkpt lat="44.56363" lon="2.65042">
        <ele>341.85873413086</ele>
        <time>2020-07-02T19:32:58.298Z</time>
      </trkpt>
      <trkpt lat="44.56333" lon="2.64958">
        <ele>348.70864868164</ele>
        <time>2020-07-02T19:33:04.213Z</time>
      </trkpt>
      <trkpt lat="44.56339" lon="2.64946">
        <ele>346.93225097656</ele>
        <time>2020-07-02T19:33:10.132Z</time>
      </trkpt>
      <trkpt lat="44.56357" lon="2.64945">
        <ele>341.89910888672</ele>
        <time>2020-07-02T19:33:16.057Z</time>
      </trkpt>
      <trkpt lat="44.56375" lon="2.64977">
        <ele>339.83505249023</ele>
        <time>2020-07-02T19:33:21.991Z</time>
      </trkpt>
      <trkpt lat="44.564" lon="2.65047">
        <ele>340.46405029297</ele>
        <time>2020-07-02T19:33:27.944Z</time>
      </trkpt>
      <trkpt lat="44.56414" lon="2.65136">
        <ele>336.55047607422</ele>
        <time>2020-07-02T19:33:33.919Z</time>
      </trkpt>
      <trkpt lat="44.56428" lon="2.65167">
        <ele>335.2109375</ele>
        <time>2020-07-02T19:33:39.903Z</time>
      </trkpt>
      <trkpt lat="44.56428" lon="2.65167">
        <ele>335.21173095703</ele>
        <time>2020-07-02T19:33:45.887Z</time>
      </trkpt>
      <trkpt lat="44.56432" lon="2.65176">
        <ele>334.0221862793</ele>
        <time>2020-07-02T19:33:51.873Z</time>
      </trkpt>
      <trkpt lat="44.56432" lon="2.65176">
        <ele>334.02035522461</ele>
        <time>2020-07-02T19:33:57.859Z</time>
      </trkpt>
      <trkpt lat="44.56432" lon="2.65176">
        <ele>334.0221862793</ele>
        <time>2020-07-02T19:34:03.845Z</time>
      </trkpt>
      <trkpt lat="44.5645" lon="2.6522">
        <ele>327.05154418945</ele>
        <time>2020-07-02T19:34:09.843Z</time>
      </trkpt>
      <trkpt lat="44.56456" lon="2.6521">
        <ele>328.64010620117</ele>
        <time>2020-07-02T19:34:15.844Z</time>
      </trkpt>
      <trkpt lat="44.56441" lon="2.65148">
        <ele>335.14956665039</ele>
        <time>2020-07-02T19:34:21.861Z</time>
      </trkpt>
      <trkpt lat="44.56434" lon="2.65086">
        <ele>341.79183959961</ele>
        <time>2020-07-02T19:34:27.893Z</time>
      </trkpt>
      <trkpt lat="44.56434" lon="2.65086">
        <ele>341.79174804688</ele>
        <time>2020-07-02T19:34:33.925Z</time>
      </trkpt>
      <trkpt lat="44.56423" lon="2.6502">
        <ele>343.73107910156</ele>
        <time>2020-07-02T19:34:39.973Z</time>
      </trkpt>
      <trkpt lat="44.56423" lon="2.6502">
        <ele>343.73168945312</ele>
        <time>2020-07-02T19:34:46.021Z</time>
      </trkpt>
      <trkpt lat="44.56406" lon="2.64915">
        <ele>352.41351318359</ele>
        <time>2020-07-02T19:34:52.095Z</time>
      </trkpt>
      <trkpt lat="44.56397" lon="2.64878">
        <ele>347.52197265625</ele>
        <time>2020-07-02T19:34:58.178Z</time>
      </trkpt>
      <trkpt lat="44.56399" lon="2.64861">
        <ele>348.17813110352</ele>
        <time>2020-07-02T19:35:04.265Z</time>
      </trkpt>
      <trkpt lat="44.56399" lon="2.64861">
        <ele>348.17419433594</ele>
        <time>2020-07-02T19:35:10.352Z</time>
      </trkpt>
      <trkpt lat="44.56403" lon="2.6481">
        <ele>352.9001159668</ele>
        <time>2020-07-02T19:35:16.451Z</time>
      </trkpt>
      <trkpt lat="44.56393" lon="2.64721">
        <ele>358.00103759766</ele>
        <time>2020-07-02T19:35:22.572Z</time>
      </trkpt>
      <trkpt lat="44.56394" lon="2.64643">
        <ele>370.80285644531</ele>
        <time>2020-07-02T19:35:28.712Z</time>
      </trkpt>
      <trkpt lat="44.56387" lon="2.64598">
        <ele>372.65505981445</ele>
        <time>2020-07-02T19:35:34.863Z</time>
      </trkpt>
      <trkpt lat="44.5636" lon="2.64525">
        <ele>373.63421630859</ele>
        <time>2020-07-02T19:35:41.033Z</time>
      </trkpt>
      <trkpt lat="44.56362" lon="2.64512">
        <ele>376.67208862305</ele>
        <time>2020-07-02T19:35:47.206Z</time>
      </trkpt>
      <trkpt lat="44.56368" lon="2.64511">
        <ele>379.38385009766</ele>
        <time>2020-07-02T19:35:53.381Z</time>
      </trkpt>
      <trkpt lat="44.56398" lon="2.64556">
        <ele>384.6100769043</ele>
        <time>2020-07-02T19:35:59.571Z</time>
      </trkpt>
      <trkpt lat="44.56426" lon="2.64598">
        <ele>391.19140625</ele>
        <time>2020-07-02T19:36:05.775Z</time>
      </trkpt>
      <trkpt lat="44.56451" lon="2.64732">
        <ele>388.1741027832</ele>
        <time>2020-07-02T19:36:12.012Z</time>
      </trkpt>
      <trkpt lat="44.56494" lon="2.64897">
        <ele>399.83633422852</ele>
        <time>2020-07-02T19:36:18.291Z</time>
      </trkpt>
      <trkpt lat="44.56493" lon="2.64897">
        <ele>399.83047485352</ele>
        <time>2020-07-02T19:36:24.570Z</time>
      </trkpt>
      <trkpt lat="44.56513" lon="2.64924">
        <ele>410.57815551758</ele>
        <time>2020-07-02T19:36:30.858Z</time>
      </trkpt>
      <trkpt lat="44.56518" lon="2.64933">
        <ele>411.83966064453</ele>
        <time>2020-07-02T19:36:37.148Z</time>
      </trkpt>
      <trkpt lat="44.56518" lon="2.64933">
        <ele>411.83383178711</ele>
        <time>2020-07-02T19:36:43.438Z</time>
      </trkpt>
      <trkpt lat="44.56541" lon="2.6498">
        <ele>412.41632080078</ele>
        <time>2020-07-02T19:36:49.742Z</time>
      </trkpt>
      <trkpt lat="44.56569" lon="2.65014">
        <ele>415.10971069336</ele>
        <time>2020-07-02T19:36:56.058Z</time>
      </trkpt>
      <trkpt lat="44.56598" lon="2.65025">
        <ele>425.09872436523</ele>
        <time>2020-07-02T19:37:02.384Z</time>
      </trkpt>
      <trkpt lat="44.56607" lon="2.65015">
        <ele>432.39743041992</ele>
        <time>2020-07-02T19:37:08.714Z</time>
      </trkpt>
      <trkpt lat="44.56694" lon="2.64991">
        <ele>459.50588989258</ele>
        <time>2020-07-02T19:37:15.074Z</time>
      </trkpt>
      <trkpt lat="44.56694" lon="2.64991">
        <ele>459.59811401367</ele>
        <time>2020-07-02T19:37:21.434Z</time>
      </trkpt>
      <trkpt lat="44.56694" lon="2.64991">
        <ele>459.5964050293</ele>
        <time>2020-07-02T19:37:27.794Z</time>
      </trkpt>
      <trkpt lat="44.5672" lon="2.64984">
        <ele>465.80435180664</ele>
        <time>2020-07-02T19:37:34.163Z</time>
      </trkpt>
      <trkpt lat="44.56752" lon="2.65007">
        <ele>464.10247802734</ele>
        <time>2020-07-02T19:37:40.544Z</time>
      </trkpt>
      <trkpt lat="44.56781" lon="2.6501">
        <ele>467.15325927734</ele>
        <time>2020-07-02T19:37:46.934Z</time>
      </trkpt>
      <trkpt lat="44.5682" lon="2.64993">
        <ele>470.10943603516</ele>
        <time>2020-07-02T19:37:53.338Z</time>
      </trkpt>
      <trkpt lat="44.56853" lon="2.6494">
        <ele>481.49725341797</ele>
        <time>2020-07-02T19:37:59.758Z</time>
      </trkpt>
      <trkpt lat="44.56846" lon="2.64893">
        <ele>488.51019287109</ele>
        <time>2020-07-02T19:38:06.190Z</time>
      </trkpt>
      <trkpt lat="44.5685" lon="2.64871">
        <ele>488.89636230469</ele>
        <time>2020-07-02T19:38:12.627Z</time>
      </trkpt>
      <trkpt lat="44.56877" lon="2.64816">
        <ele>474.98110961914</ele>
        <time>2020-07-02T19:38:19.080Z</time>
      </trkpt>
      <trkpt lat="44.56869" lon="2.64744">
        <ele>456.07528686523</ele>
        <time>2020-07-02T19:38:25.550Z</time>
      </trkpt>
      <trkpt lat="44.56849" lon="2.64717">
        <ele>446.71441650391</ele>
        <time>2020-07-02T19:38:32.030Z</time>
      </trkpt>
      <trkpt lat="44.56811" lon="2.64716">
        <ele>452.01214599609</ele>
        <time>2020-07-02T19:38:38.522Z</time>
      </trkpt>
      <trkpt lat="44.56696" lon="2.64648">
        <ele>446.41616821289</ele>
        <time>2020-07-02T19:38:45.056Z</time>
      </trkpt>
      <trkpt lat="44.56679" lon="2.64619">
        <ele>442.55444335938</ele>
        <time>2020-07-02T19:38:51.599Z</time>
      </trkpt>
      <trkpt lat="44.56684" lon="2.64609">
        <ele>435.21713256836</ele>
        <time>2020-07-02T19:38:58.145Z</time>
      </trkpt>
      <trkpt lat="44.56843" lon="2.64615">
        <ele>399.07211303711</ele>
        <time>2020-07-02T19:39:04.744Z</time>
      </trkpt>
      <trkpt lat="44.5686" lon="2.64605">
        <ele>391.46447753906</ele>
        <time>2020-07-02T19:39:11.349Z</time>
      </trkpt>
      <trkpt lat="44.56869" lon="2.64586">
        <ele>380.86575317383</ele>
        <time>2020-07-02T19:39:17.959Z</time>
      </trkpt>
      <trkpt lat="44.5683" lon="2.64562">
        <ele>388.58169555664</ele>
        <time>2020-07-02T19:39:24.584Z</time>
      </trkpt>
      <trkpt lat="44.56737" lon="2.64555">
        <ele>404.61538696289</ele>
        <time>2020-07-02T19:39:31.240Z</time>
      </trkpt>
      <trkpt lat="44.56734" lon="2.64532">
        <ele>403.39389038086</ele>
        <time>2020-07-02T19:39:37.901Z</time>
      </trkpt>
      <trkpt lat="44.56764" lon="2.64529">
        <ele>400.2658996582</ele>
        <time>2020-07-02T19:39:44.572Z</time>
      </trkpt>
      <trkpt lat="44.56805" lon="2.64511">
        <ele>395.91180419922</ele>
        <time>2020-07-02T19:39:51.257Z</time>
      </trkpt>
      <trkpt lat="44.56926" lon="2.64428">
        <ele>408.74041748047</ele>
        <time>2020-07-02T19:39:57.987Z</time>
      </trkpt>
      <trkpt lat="44.5696" lon="2.64356">
        <ele>430.06695556641</ele>
        <time>2020-07-02T19:40:04.738Z</time>
      </trkpt>
      <trkpt lat="44.57032" lon="2.64283">
        <ele>425.63497924805</ele>
        <time>2020-07-02T19:40:11.519Z</time>
      </trkpt>
      <trkpt lat="44.57024" lon="2.64274">
        <ele>431.76226806641</ele>
        <time>2020-07-02T19:40:18.303Z</time>
      </trkpt>
      <trkpt lat="44.57015" lon="2.64276">
        <ele>435.0576171875</ele>
        <time>2020-07-02T19:40:25.090Z</time>
      </trkpt>
      <trkpt lat="44.56912" lon="2.64344">
        <ele>449.58099365234</ele>
        <time>2020-07-02T19:40:31.915Z</time>
      </trkpt>
      <trkpt lat="44.56883" lon="2.64374">
        <ele>445.58813476562</ele>
        <time>2020-07-02T19:40:38.752Z</time>
      </trkpt>
      <trkpt lat="44.56821" lon="2.64397">
        <ele>437.08551025391</ele>
        <time>2020-07-02T19:40:45.611Z</time>
      </trkpt>
      <trkpt lat="44.56812" lon="2.64389">
        <ele>439.96893310547</ele>
        <time>2020-07-02T19:40:52.473Z</time>
      </trkpt>
      <trkpt lat="44.5686" lon="2.64348">
        <ele>460.90994262695</ele>
        <time>2020-07-02T19:40:59.354Z</time>
      </trkpt>
      <trkpt lat="44.56878" lon="2.64315">
        <ele>470.9616394043</ele>
        <time>2020-07-02T19:41:06.245Z</time>
      </trkpt>
      <trkpt lat="44.56898" lon="2.64261">
        <ele>481.25744628906</ele>
        <time>2020-07-02T19:41:13.150Z</time>
      </trkpt>
      <trkpt lat="44.56954" lon="2.64162">
        <ele>496.78201293945</ele>
        <time>2020-07-02T19:41:20.085Z</time>
      </trkpt>
      <trkpt lat="44.56977" lon="2.64087">
        <ele>508.88781738281</ele>
        <time>2020-07-02T19:41:27.040Z</time>
      </trkpt>
      <trkpt lat="44.56975" lon="2.64081">
        <ele>511.23330688477</ele>
        <time>2020-07-02T19:41:33.996Z</time>
      </trkpt>
      <trkpt lat="44.56967" lon="2.64086">
        <ele>514.02392578125</ele>
        <time>2020-07-02T19:41:40.956Z</time>
      </trkpt>
      <trkpt lat="44.56933" lon="2.64146">
        <ele>501.81408691406</ele>
        <time>2020-07-02T19:41:47.934Z</time>
      </trkpt>
      <trkpt lat="44.56888" lon="2.64193">
        <ele>499.1513671875</ele>
        <time>2020-07-02T19:41:54.930Z</time>
      </trkpt>
      <trkpt lat="44.56828" lon="2.64253">
        <ele>477.97442626953</ele>
        <time>2020-07-02T19:42:01.951Z</time>
      </trkpt>
      <trkpt lat="44.56815" lon="2.64258">
        <ele>471.89862060547</ele>
        <time>2020-07-02T19:42:08.977Z</time>
      </trkpt>
      <trkpt lat="44.5682" lon="2.64197">
        <ele>479.53970336914</ele>
        <time>2020-07-02T19:42:16.017Z</time>
      </trkpt>
      <trkpt lat="44.5681" lon="2.64076">
        <ele>488.67111206055</ele>
        <time>2020-07-02T19:42:23.086Z</time>
      </trkpt>
      <trkpt lat="44.56838" lon="2.63974">
        <ele>509.27627563477</ele>
        <time>2020-07-02T19:42:30.181Z</time>
      </trkpt>
      <trkpt lat="44.56842" lon="2.63923">
        <ele>510.95266723633</ele>
        <time>2020-07-02T19:42:37.288Z</time>
      </trkpt>
      <trkpt lat="44.56922" lon="2.63764">
        <ele>534.09936523438</ele>
        <time>2020-07-02T19:42:44.442Z</time>
      </trkpt>
      <trkpt lat="44.56921" lon="2.63704">
        <ele>545.36297607422</ele>
        <time>2020-07-02T19:42:51.610Z</time>
      </trkpt>
      <trkpt lat="44.56934" lon="2.63618">
        <ele>555.92742919922</ele>
        <time>2020-07-02T19:42:58.799Z</time>
      </trkpt>
      <trkpt lat="44.56931" lon="2.63614">
        <ele>557.56219482422</ele>
        <time>2020-07-02T19:43:05.989Z</time>
      </trkpt>
      <trkpt lat="44.56921" lon="2.63623">
        <ele>559.44158935547</ele>
        <time>2020-07-02T19:43:13.183Z</time>
      </trkpt>
      <trkpt lat="44.56885" lon="2.6367">
        <ele>551.68334960938</ele>
        <time>2020-07-02T19:43:20.394Z</time>
      </trkpt>
      <trkpt lat="44.5685" lon="2.637">
        <ele>546.38781738281</ele>
        <time>2020-07-02T19:43:27.619Z</time>
      </trkpt>
      <trkpt lat="44.56801" lon="2.63693">
        <ele>558.77764892578</ele>
        <time>2020-07-02T19:43:34.860Z</time>
      </trkpt>
      <trkpt lat="44.56781" lon="2.63701">
        <ele>561.3427734375</ele>
        <time>2020-07-02T19:43:42.108Z</time>
      </trkpt>
      <trkpt lat="44.56748" lon="2.63747">
        <ele>543.35656738281</ele>
        <time>2020-07-02T19:43:49.371Z</time>
      </trkpt>
      <trkpt lat="44.56727" lon="2.63789">
        <ele>528.26190185547</ele>
        <time>2020-07-02T19:43:56.646Z</time>
      </trkpt>
      <trkpt lat="44.56741" lon="2.63687">
        <ele>557.71270751953</ele>
        <time>2020-07-02T19:44:03.946Z</time>
      </trkpt>
      <trkpt lat="44.56753" lon="2.63655">
        <ele>564.35833740234</ele>
        <time>2020-07-02T19:44:11.255Z</time>
      </trkpt>
      <trkpt lat="44.56746" lon="2.63657">
        <ele>563.00671386719</ele>
        <time>2020-07-02T19:44:18.566Z</time>
      </trkpt>
      <trkpt lat="44.5672" lon="2.63699">
        <ele>550.74536132812</ele>
        <time>2020-07-02T19:44:25.890Z</time>
      </trkpt>
      <trkpt lat="44.56716" lon="2.63697">
        <ele>550.48791503906</ele>
        <time>2020-07-02T19:44:33.216Z</time>
      </trkpt>
      <trkpt lat="44.56716" lon="2.63697">
        <ele>550.48950195312</ele>
        <time>2020-07-02T19:44:40.542Z</time>
      </trkpt>
      <trkpt lat="44.56716" lon="2.63643">
        <ele>557.60028076172</ele>
        <time>2020-07-02T19:44:47.881Z</time>
      </trkpt>
      <trkpt lat="44.56724" lon="2.63623">
        <ele>559.14495849609</ele>
        <time>2020-07-02T19:44:55.225Z</time>
      </trkpt>
      <trkpt lat="44.56767" lon="2.63567">
        <ele>572.61352539062</ele>
        <time>2020-07-02T19:45:02.589Z</time>
      </trkpt>
      <trkpt lat="44.56809" lon="2.63467">
        <ele>576.65991210938</ele>
        <time>2020-07-02T19:45:09.981Z</time>
      </trkpt>
      <trkpt lat="44.56873" lon="2.6338">
        <ele>591.86676025391</ele>
        <time>2020-07-02T19:45:17.402Z</time>
      </trkpt>
      <trkpt lat="44.56889" lon="2.63365">
        <ele>590.47296142578</ele>
        <time>2020-07-02T19:45:24.830Z</time>
      </trkpt>
      <trkpt lat="44.5689" lon="2.63365">
        <ele>590.45275878906</ele>
        <time>2020-07-02T19:45:32.258Z</time>
      </trkpt>
      <trkpt lat="44.5689" lon="2.63365">
        <ele>590.44976806641</ele>
        <time>2020-07-02T19:45:39.686Z</time>
      </trkpt>
      <trkpt lat="44.56894" lon="2.63361">
        <ele>590.23596191406</ele>
        <time>2020-07-02T19:45:47.116Z</time>
      </trkpt>
      <trkpt lat="44.57012" lon="2.63307">
        <ele>610.75079345703</ele>
        <time>2020-07-02T19:45:54.587Z</time>
      </trkpt>
      <trkpt lat="44.57058" lon="2.63275">
        <ele>608.89801025391</ele>
        <time>2020-07-02T19:46:02.075Z</time>
      </trkpt>
      <trkpt lat="44.57139" lon="2.63203">
        <ele>612.39868164062</ele>
        <time>2020-07-02T19:46:09.595Z</time>
      </trkpt>
      <trkpt lat="44.57184" lon="2.63147">
        <ele>621.68585205078</ele>
        <time>2020-07-02T19:46:17.135Z</time>
      </trkpt>
      <trkpt lat="44.57392" lon="2.63032">
        <ele>646.35375976562</ele>
        <time>2020-07-02T19:46:24.750Z</time>
      </trkpt>
      <trkpt lat="44.57392" lon="2.62999">
        <ele>646.78442382812</ele>
        <time>2020-07-02T19:46:32.372Z</time>
      </trkpt>
      <trkpt lat="44.57437" lon="2.62929">
        <ele>645.24560546875</ele>
        <time>2020-07-02T19:46:40.017Z</time>
      </trkpt>
      <trkpt lat="44.57442" lon="2.62912">
        <ele>645.8330078125</ele>
        <time>2020-07-02T19:46:47.666Z</time>
      </trkpt>
      <trkpt lat="44.57445" lon="2.62851">
        <ele>649.69476318359</ele>
        <time>2020-07-02T19:46:55.330Z</time>
      </trkpt>
      <trkpt lat="44.57442" lon="2.62805">
        <ele>652.23937988281</ele>
        <time>2020-07-02T19:47:03.005Z</time>
      </trkpt>
      <trkpt lat="44.57408" lon="2.62748">
        <ele>654.00024414062</ele>
        <time>2020-07-02T19:47:10.698Z</time>
      </trkpt>
      <trkpt lat="44.57397" lon="2.62701">
        <ele>654.30920410156</ele>
        <time>2020-07-02T19:47:18.403Z</time>
      </trkpt>
      <trkpt lat="44.57402" lon="2.62484">
        <ele>658.84393310547</ele>
        <time>2020-07-02T19:47:26.159Z</time>
      </trkpt>
      <trkpt lat="44.57419" lon="2.62373">
        <ele>657.08581542969</ele>
        <time>2020-07-02T19:47:33.942Z</time>
      </trkpt>
      <trkpt lat="44.57418" lon="2.62338">
        <ele>654.98760986328</ele>
        <time>2020-07-02T19:47:41.734Z</time>
      </trkpt>
      <trkpt lat="44.57423" lon="2.62141">
        <ele>651.61877441406</ele>
        <time>2020-07-02T19:47:49.573Z</time>
      </trkpt>
      <trkpt lat="44.57385" lon="2.62129">
        <ele>650.35729980469</ele>
        <time>2020-07-02T19:47:57.424Z</time>
      </trkpt>
      <trkpt lat="44.57308" lon="2.62109">
        <ele>648.87731933594</ele>
        <time>2020-07-02T19:48:05.302Z</time>
      </trkpt>
      <trkpt lat="44.57279" lon="2.62068">
        <ele>650.35363769531</ele>
        <time>2020-07-02T19:48:13.193Z</time>
      </trkpt>
      <trkpt lat="44.57248" lon="2.61967">
        <ele>652.49005126953</ele>
        <time>2020-07-02T19:48:21.111Z</time>
      </trkpt>
      <trkpt lat="44.5721" lon="2.61897">
        <ele>652.38940429688</ele>
        <time>2020-07-02T19:48:29.049Z</time>
      </trkpt>
      <trkpt lat="44.5721" lon="2.61897">
        <ele>652.39001464844</ele>
        <time>2020-07-02T19:48:36.987Z</time>
      </trkpt>
      <trkpt lat="44.57186" lon="2.6184">
        <ele>650.30780029297</ele>
        <time>2020-07-02T19:48:44.941Z</time>
      </trkpt>
      <trkpt lat="44.57185" lon="2.61831">
        <ele>650.08941650391</ele>
        <time>2020-07-02T19:48:52.897Z</time>
      </trkpt>
      <trkpt lat="44.57185" lon="2.61831">
        <ele>650.07458496094</ele>
        <time>2020-07-02T19:49:00.854Z</time>
      </trkpt>
      <trkpt lat="44.57185" lon="2.61831">
        <ele>650.07397460938</ele>
        <time>2020-07-02T19:49:08.811Z</time>
      </trkpt>
      <trkpt lat="44.57184" lon="2.61749">
        <ele>647.79901123047</ele>
        <time>2020-07-02T19:49:16.787Z</time>
      </trkpt>
      <trkpt lat="44.57184" lon="2.61757">
        <ele>648.10864257812</ele>
        <time>2020-07-02T19:49:24.765Z</time>
      </trkpt>
      <trkpt lat="44.57161" lon="2.61781">
        <ele>647.28479003906</ele>
        <time>2020-07-02T19:49:32.753Z</time>
      </trkpt>
      <trkpt lat="44.57118" lon="2.61807">
        <ele>645.99041748047</ele>
        <time>2020-07-02T19:49:40.756Z</time>
      </trkpt>
      <trkpt lat="44.5705" lon="2.61801">
        <ele>642.55181884766</ele>
        <time>2020-07-02T19:49:48.782Z</time>
      </trkpt>
      <trkpt lat="44.56955" lon="2.61768">
        <ele>633.73706054688</ele>
        <time>2020-07-02T19:49:56.841Z</time>
      </trkpt>
      <trkpt lat="44.56866" lon="2.61752">
        <ele>628.48425292969</ele>
        <time>2020-07-02T19:50:04.929Z</time>
      </trkpt>
      <trkpt lat="44.5683" lon="2.61759">
        <ele>619.79534912109</ele>
        <time>2020-07-02T19:50:13.029Z</time>
      </trkpt>
      <trkpt lat="44.56808" lon="2.61786">
        <ele>614.20886230469</ele>
        <time>2020-07-02T19:50:21.139Z</time>
      </trkpt>
      <trkpt lat="44.56808" lon="2.61786">
        <ele>614.20867919922</ele>
        <time>2020-07-02T19:50:29.249Z</time>
      </trkpt>
      <trkpt lat="44.56774" lon="2.61806">
        <ele>614.53375244141</ele>
        <time>2020-07-02T19:50:37.372Z</time>
      </trkpt>
      <trkpt lat="44.56717" lon="2.61808">
        <ele>610.39013671875</ele>
        <time>2020-07-02T19:50:45.514Z</time>
      </trkpt>
      <trkpt lat="44.5658" lon="2.61848">
        <ele>605.654296875</ele>
        <time>2020-07-02T19:50:53.702Z</time>
      </trkpt>
      <trkpt lat="44.56545" lon="2.61845">
        <ele>604.3798828125</ele>
        <time>2020-07-02T19:51:01.902Z</time>
      </trkpt>
      <trkpt lat="44.56495" lon="2.61855">
        <ele>605.18737792969</ele>
        <time>2020-07-02T19:51:10.119Z</time>
      </trkpt>
      <trkpt lat="44.56434" lon="2.61887">
        <ele>609.61151123047</ele>
        <time>2020-07-02T19:51:18.357Z</time>
      </trkpt>
      <trkpt lat="44.5634" lon="2.61919">
        <ele>609.00140380859</ele>
        <time>2020-07-02T19:51:26.628Z</time>
      </trkpt>
      <trkpt lat="44.56321" lon="2.61921">
        <ele>606.73583984375</ele>
        <time>2020-07-02T19:51:34.905Z</time>
      </trkpt>
      <trkpt lat="44.56206" lon="2.61898">
        <ele>593.10321044922</ele>
        <time>2020-07-02T19:51:43.221Z</time>
      </trkpt>
      <trkpt lat="44.56181" lon="2.61908">
        <ele>588.64514160156</ele>
        <time>2020-07-02T19:51:51.545Z</time>
      </trkpt>
      <trkpt lat="44.56134" lon="2.61974">
        <ele>584.46887207031</ele>
        <time>2020-07-02T19:51:59.891Z</time>
      </trkpt>
      <trkpt lat="44.56061" lon="2.62056">
        <ele>574.47338867188</ele>
        <time>2020-07-02T19:52:08.269Z</time>
      </trkpt>
      <trkpt lat="44.56025" lon="2.62122">
        <ele>567.80102539062</ele>
        <time>2020-07-02T19:52:16.666Z</time>
      </trkpt>
      <trkpt lat="44.56015" lon="2.62119">
        <ele>565.53546142578</ele>
        <time>2020-07-02T19:52:25.067Z</time>
      </trkpt>
      <trkpt lat="44.55999" lon="2.62045">
        <ele>562.3828125</ele>
        <time>2020-07-02T19:52:33.486Z</time>
      </trkpt>
      <trkpt lat="44.55995" lon="2.62036">
        <ele>561.34783935547</ele>
        <time>2020-07-02T19:52:41.908Z</time>
      </trkpt>
      <trkpt lat="44.55995" lon="2.62035">
        <ele>561.30798339844</ele>
        <time>2020-07-02T19:52:50.330Z</time>
      </trkpt>
      <trkpt lat="44.55995" lon="2.62035">
        <ele>561.30816650391</ele>
        <time>2020-07-02T19:52:58.752Z</time>
      </trkpt>
      <trkpt lat="44.55973" lon="2.61977">
        <ele>555.47766113281</ele>
        <time>2020-07-02T19:53:07.190Z</time>
      </trkpt>
      <trkpt lat="44.55963" lon="2.61952">
        <ele>553.09625244141</ele>
        <time>2020-07-02T19:53:15.634Z</time>
      </trkpt>
      <trkpt lat="44.55958" lon="2.61908">
        <ele>550.26147460938</ele>
        <time>2020-07-02T19:53:24.089Z</time>
      </trkpt>
      <trkpt lat="44.5596" lon="2.61868">
        <ele>547.71270751953</ele>
        <time>2020-07-02T19:53:32.553Z</time>
      </trkpt>
      <trkpt lat="44.5597" lon="2.6185">
        <ele>547.69128417969</ele>
        <time>2020-07-02T19:53:41.023Z</time>
      </trkpt>
      <trkpt lat="44.55968" lon="2.61824">
        <ele>545.22485351562</ele>
        <time>2020-07-02T19:53:49.499Z</time>
      </trkpt>
      <trkpt lat="44.55948" lon="2.61788">
        <ele>539.88592529297</ele>
        <time>2020-07-02T19:53:57.986Z</time>
      </trkpt>
      <trkpt lat="44.55945" lon="2.6176">
        <ele>536.98962402344</ele>
        <time>2020-07-02T19:54:06.480Z</time>
      </trkpt>
      <trkpt lat="44.55956" lon="2.61755">
        <ele>538.59521484375</ele>
        <time>2020-07-02T19:54:14.977Z</time>
      </trkpt>
      <trkpt lat="44.5597" lon="2.61778">
        <ele>542.16125488281</ele>
        <time>2020-07-02T19:54:23.482Z</time>
      </trkpt>
      <trkpt lat="44.55987" lon="2.61786">
        <ele>544.56805419922</ele>
        <time>2020-07-02T19:54:31.993Z</time>
      </trkpt>
      <trkpt lat="44.55952" lon="2.6169">
        <ele>528.40026855469</ele>
        <time>2020-07-02T19:54:40.529Z</time>
      </trkpt>
      <trkpt lat="44.55901" lon="2.61641">
        <ele>506.6181640625</ele>
        <time>2020-07-02T19:54:49.086Z</time>
      </trkpt>
      <trkpt lat="44.55845" lon="2.61729">
        <ele>500.48544311523</ele>
        <time>2020-07-02T19:54:57.671Z</time>
      </trkpt>
      <trkpt lat="44.55818" lon="2.61757">
        <ele>488.421875</ele>
        <time>2020-07-02T19:55:06.267Z</time>
      </trkpt>
      <trkpt lat="44.55783" lon="2.61832">
        <ele>479.30648803711</ele>
        <time>2020-07-02T19:55:14.885Z</time>
      </trkpt>
      <trkpt lat="44.55806" lon="2.61741">
        <ele>480.36999511719</ele>
        <time>2020-07-02T19:55:23.526Z</time>
      </trkpt>
      <trkpt lat="44.55837" lon="2.61661">
        <ele>486.24801635742</ele>
        <time>2020-07-02T19:55:32.188Z</time>
      </trkpt>
      <trkpt lat="44.55862" lon="2.61565">
        <ele>480.56176757812</ele>
        <time>2020-07-02T19:55:40.875Z</time>
      </trkpt>
      <trkpt lat="44.55897" lon="2.61533">
        <ele>474.93023681641</ele>
        <time>2020-07-02T19:55:49.576Z</time>
      </trkpt>
      <trkpt lat="44.55927" lon="2.6153">
        <ele>484.40551757812</ele>
        <time>2020-07-02T19:55:58.287Z</time>
      </trkpt>
      <trkpt lat="44.5594" lon="2.61511">
        <ele>485.02340698242</ele>
        <time>2020-07-02T19:56:07.004Z</time>
      </trkpt>
      <trkpt lat="44.55917" lon="2.61403">
        <ele>474.12921142578</ele>
        <time>2020-07-02T19:56:15.748Z</time>
      </trkpt>
      <trkpt lat="44.56003" lon="2.6127">
        <ele>476.25024414062</ele>
        <time>2020-07-02T19:56:24.535Z</time>
      </trkpt>
      <trkpt lat="44.56011" lon="2.61246">
        <ele>474.79095458984</ele>
        <time>2020-07-02T19:56:33.328Z</time>
      </trkpt>
      <trkpt lat="44.56006" lon="2.61231">
        <ele>479.68249511719</ele>
        <time>2020-07-02T19:56:42.125Z</time>
      </trkpt>
      <trkpt lat="44.55991" lon="2.61235">
        <ele>480.42910766602</ele>
        <time>2020-07-02T19:56:50.927Z</time>
      </trkpt>
      <trkpt lat="44.55957" lon="2.61284">
        <ele>475.06622314453</ele>
        <time>2020-07-02T19:56:59.745Z</time>
      </trkpt>
      <trkpt lat="44.55925" lon="2.61298">
        <ele>477.16790771484</ele>
        <time>2020-07-02T19:57:08.574Z</time>
      </trkpt>
      <trkpt lat="44.55881" lon="2.61303">
        <ele>486.11993408203</ele>
        <time>2020-07-02T19:57:17.418Z</time>
      </trkpt>
      <trkpt lat="44.55853" lon="2.61318">
        <ele>486.05288696289</ele>
        <time>2020-07-02T19:57:26.272Z</time>
      </trkpt>
      <trkpt lat="44.55773" lon="2.61403">
        <ele>479.40533447266</ele>
        <time>2020-07-02T19:57:35.159Z</time>
      </trkpt>
      <trkpt lat="44.55741" lon="2.61407">
        <ele>475.1291809082</ele>
        <time>2020-07-02T19:57:44.057Z</time>
      </trkpt>
      <trkpt lat="44.55694" lon="2.614">
        <ele>471.57150268555</ele>
        <time>2020-07-02T19:57:52.971Z</time>
      </trkpt>
      <trkpt lat="44.55677" lon="2.61334">
        <ele>477.40274047852</ele>
        <time>2020-07-02T19:58:01.901Z</time>
      </trkpt>
      <trkpt lat="44.55681" lon="2.61319">
        <ele>479.33419799805</ele>
        <time>2020-07-02T19:58:10.835Z</time>
      </trkpt>
      <trkpt lat="44.55681" lon="2.61319">
        <ele>479.33358764648</ele>
        <time>2020-07-02T19:58:19.769Z</time>
      </trkpt>
      <trkpt lat="44.55729" lon="2.61226">
        <ele>486.90707397461</ele>
        <time>2020-07-02T19:58:28.730Z</time>
      </trkpt>
      <trkpt lat="44.55729" lon="2.61226">
        <ele>486.90414428711</ele>
        <time>2020-07-02T19:58:37.691Z</time>
      </trkpt>
      <trkpt lat="44.55741" lon="2.6119">
        <ele>491.58450317383</ele>
        <time>2020-07-02T19:58:46.662Z</time>
      </trkpt>
      <trkpt lat="44.55754" lon="2.61107">
        <ele>498.56546020508</ele>
        <time>2020-07-02T19:58:55.653Z</time>
      </trkpt>
      <trkpt lat="44.55774" lon="2.61146">
        <ele>503.35403442383</ele>
        <time>2020-07-02T19:59:04.656Z</time>
      </trkpt>
      <trkpt lat="44.55791" lon="2.61157">
        <ele>507.29138183594</ele>
        <time>2020-07-02T19:59:13.665Z</time>
      </trkpt>
      <trkpt lat="44.55834" lon="2.6111">
        <ele>516.44781494141</ele>
        <time>2020-07-02T19:59:22.692Z</time>
      </trkpt>
      <trkpt lat="44.55853" lon="2.61103">
        <ele>521.08184814453</ele>
        <time>2020-07-02T19:59:31.726Z</time>
      </trkpt>
      <trkpt lat="44.55922" lon="2.61131">
        <ele>514.92590332031</ele>
        <time>2020-07-02T19:59:40.784Z</time>
      </trkpt>
      <trkpt lat="44.55946" lon="2.61086">
        <ele>527.65679931641</ele>
        <time>2020-07-02T19:59:49.855Z</time>
      </trkpt>
      <trkpt lat="44.55969" lon="2.61067">
        <ele>530.26879882812</ele>
        <time>2020-07-02T19:59:58.935Z</time>
      </trkpt>
      <trkpt lat="44.55989" lon="2.61062">
        <ele>528.20916748047</ele>
        <time>2020-07-02T20:00:08.022Z</time>
      </trkpt>
      <trkpt lat="44.56033" lon="2.61011">
        <ele>539.79309082031</ele>
        <time>2020-07-02T20:00:17.128Z</time>
      </trkpt>
      <trkpt lat="44.56034" lon="2.61009">
        <ele>540.32708740234</ele>
        <time>2020-07-02T20:00:26.234Z</time>
      </trkpt>
      <trkpt lat="44.56034" lon="2.61009">
        <ele>540.45379638672</ele>
        <time>2020-07-02T20:00:35.340Z</time>
      </trkpt>
      <trkpt lat="44.56034" lon="2.61009">
        <ele>540.45080566406</ele>
        <time>2020-07-02T20:00:44.446Z</time>
      </trkpt>
      <trkpt lat="44.56068" lon="2.60924">
        <ele>555.189453125</ele>
        <time>2020-07-02T20:00:53.576Z</time>
      </trkpt>
      <trkpt lat="44.56092" lon="2.60894">
        <ele>551.86114501953</ele>
        <time>2020-07-02T20:01:02.716Z</time>
      </trkpt>
      <trkpt lat="44.56112" lon="2.60858">
        <ele>558.44000244141</ele>
        <time>2020-07-02T20:01:11.867Z</time>
      </trkpt>
      <trkpt lat="44.56158" lon="2.60836">
        <ele>548.29412841797</ele>
        <time>2020-07-02T20:01:21.034Z</time>
      </trkpt>
      <trkpt lat="44.56172" lon="2.60837">
        <ele>542.59161376953</ele>
        <time>2020-07-02T20:01:30.206Z</time>
      </trkpt>
      <trkpt lat="44.56192" lon="2.60862">
        <ele>526.77136230469</ele>
        <time>2020-07-02T20:01:39.387Z</time>
      </trkpt>
      <trkpt lat="44.56204" lon="2.60858">
        <ele>524.46020507812</ele>
        <time>2020-07-02T20:01:48.572Z</time>
      </trkpt>
      <trkpt lat="44.56257" lon="2.60776">
        <ele>540.81756591797</ele>
        <time>2020-07-02T20:01:57.784Z</time>
      </trkpt>
      <trkpt lat="44.56261" lon="2.60715">
        <ele>553.62841796875</ele>
        <time>2020-07-02T20:02:07.010Z</time>
      </trkpt>
      <trkpt lat="44.56253" lon="2.60699">
        <ele>559.53686523438</ele>
        <time>2020-07-02T20:02:16.241Z</time>
      </trkpt>
      <trkpt lat="44.56252" lon="2.60683">
        <ele>563.35998535156</ele>
        <time>2020-07-02T20:02:25.476Z</time>
      </trkpt>
      <trkpt lat="44.56288" lon="2.60667">
        <ele>555.76739501953</ele>
        <time>2020-07-02T20:02:34.723Z</time>
      </trkpt>
      <trkpt lat="44.56295" lon="2.60594">
        <ele>574.02459716797</ele>
        <time>2020-07-02T20:02:43.988Z</time>
      </trkpt>
      <trkpt lat="44.56327" lon="2.60557">
        <ele>573.32220458984</ele>
        <time>2020-07-02T20:02:53.266Z</time>
      </trkpt>
      <trkpt lat="44.56307" lon="2.60563">
        <ele>578.20086669922</ele>
        <time>2020-07-02T20:03:02.551Z</time>
      </trkpt>
      <trkpt lat="44.56284" lon="2.6058">
        <ele>580.45776367188</ele>
        <time>2020-07-02T20:03:11.845Z</time>
      </trkpt>
      <trkpt lat="44.56263" lon="2.60633">
        <ele>571.08837890625</ele>
        <time>2020-07-02T20:03:21.154Z</time>
      </trkpt>
      <trkpt lat="44.56206" lon="2.60643">
        <ele>586.57409667969</ele>
        <time>2020-07-02T20:03:30.482Z</time>
      </trkpt>
      <trkpt lat="44.5618" lon="2.60699">
        <ele>578.43957519531</ele>
        <time>2020-07-02T20:03:39.825Z</time>
      </trkpt>
      <trkpt lat="44.56165" lon="2.60712">
        <ele>577.33258056641</ele>
        <time>2020-07-02T20:03:49.174Z</time>
      </trkpt>
      <trkpt lat="44.56094" lon="2.60721">
        <ele>581.53704833984</ele>
        <time>2020-07-02T20:03:58.547Z</time>
      </trkpt>
      <trkpt lat="44.56061" lon="2.60746">
        <ele>585.13909912109</ele>
        <time>2020-07-02T20:04:07.933Z</time>
      </trkpt>
      <trkpt lat="44.56049" lon="2.60775">
        <ele>583.291015625</ele>
        <time>2020-07-02T20:04:17.327Z</time>
      </trkpt>
      <trkpt lat="44.56039" lon="2.60771">
        <ele>586.07147216797</ele>
        <time>2020-07-02T20:04:26.724Z</time>
      </trkpt>
      <trkpt lat="44.56019" lon="2.6078">
        <ele>582.6455078125</ele>
        <time>2020-07-02T20:04:36.128Z</time>
      </trkpt>
      <trkpt lat="44.56053" lon="2.60675">
        <ele>581.20233154297</ele>
        <time>2020-07-02T20:04:45.560Z</time>
      </trkpt>
      <trkpt lat="44.56094" lon="2.6062">
        <ele>585.63342285156</ele>
        <time>2020-07-02T20:04:55.011Z</time>
      </trkpt>
      <trkpt lat="44.56121" lon="2.606">
        <ele>594.35662841797</ele>
        <time>2020-07-02T20:05:04.472Z</time>
      </trkpt>
      <trkpt lat="44.56149" lon="2.60568">
        <ele>593.60479736328</ele>
        <time>2020-07-02T20:05:13.945Z</time>
      </trkpt>
      <trkpt lat="44.56149" lon="2.60568">
        <ele>593.60528564453</ele>
        <time>2020-07-02T20:05:23.418Z</time>
      </trkpt>
      <trkpt lat="44.56208" lon="2.60494">
        <ele>601.79791259766</ele>
        <time>2020-07-02T20:05:32.917Z</time>
      </trkpt>
      <trkpt lat="44.5626" lon="2.60406">
        <ele>603.22650146484</ele>
        <time>2020-07-02T20:05:42.443Z</time>
      </trkpt>
      <trkpt lat="44.56292" lon="2.60364">
        <ele>605.61145019531</ele>
        <time>2020-07-02T20:05:51.984Z</time>
      </trkpt>
      <trkpt lat="44.56343" lon="2.60317">
        <ele>612.78387451172</ele>
        <time>2020-07-02T20:06:01.545Z</time>
      </trkpt>
      <trkpt lat="44.56343" lon="2.60317">
        <ele>612.79754638672</ele>
        <time>2020-07-02T20:06:11.106Z</time>
      </trkpt>
      <trkpt lat="44.56343" lon="2.60317">
        <ele>612.7978515625</ele>
        <time>2020-07-02T20:06:20.667Z</time>
      </trkpt>
      <trkpt lat="44.56368" lon="2.60293">
        <ele>617.5029296875</ele>
        <time>2020-07-02T20:06:30.239Z</time>
      </trkpt>
      <trkpt lat="44.56433" lon="2.60253">
        <ele>627.88537597656</ele>
        <time>2020-07-02T20:06:39.834Z</time>
      </trkpt>
      <trkpt lat="44.56583" lon="2.60128">
        <ele>650.30865478516</ele>
        <time>2020-07-02T20:06:49.487Z</time>
      </trkpt>
      <trkpt lat="44.56583" lon="2.60128">
        <ele>650.30908203125</ele>
        <time>2020-07-02T20:06:59.140Z</time>
      </trkpt>
      <trkpt lat="44.56597" lon="2.60088">
        <ele>650.97845458984</ele>
        <time>2020-07-02T20:07:08.804Z</time>
      </trkpt>
      <trkpt lat="44.56637" lon="2.60097">
        <ele>652.75549316406</ele>
        <time>2020-07-02T20:07:18.482Z</time>
      </trkpt>
      <trkpt lat="44.56678" lon="2.60094">
        <ele>653.65655517578</ele>
        <time>2020-07-02T20:07:28.173Z</time>
      </trkpt>
      <trkpt lat="44.56831" lon="2.60056">
        <ele>652.96478271484</ele>
        <time>2020-07-02T20:07:37.916Z</time>
      </trkpt>
      <trkpt lat="44.56831" lon="2.60056">
        <ele>652.96478271484</ele>
        <time>2020-07-02T20:07:47.659Z</time>
      </trkpt>
      <trkpt lat="44.57032" lon="2.60004">
        <ele>656.91729736328</ele>
        <time>2020-07-02T20:07:57.470Z</time>
      </trkpt>
      <trkpt lat="44.57033" lon="2.59998">
        <ele>656.84716796875</ele>
        <time>2020-07-02T20:08:07.282Z</time>
      </trkpt>
      <trkpt lat="44.57033" lon="2.59998">
        <ele>656.83715820312</ele>
        <time>2020-07-02T20:08:17.095Z</time>
      </trkpt>
      <trkpt lat="44.57033" lon="2.59998">
        <ele>656.83654785156</ele>
        <time>2020-07-02T20:08:26.908Z</time>
      </trkpt>
      <trkpt lat="44.57032" lon="2.60004">
        <ele>656.91748046875</ele>
        <time>2020-07-02T20:08:36.722Z</time>
      </trkpt>
      <trkpt lat="44.57153" lon="2.59973">
        <ele>660.23156738281</ele>
        <time>2020-07-02T20:08:46.577Z</time>
      </trkpt>
      <trkpt lat="44.57178" lon="2.59979">
        <ele>662.69018554688</ele>
        <time>2020-07-02T20:08:56.440Z</time>
      </trkpt>
      <trkpt lat="44.57223" lon="2.60011">
        <ele>664.95190429688</ele>
        <time>2020-07-02T20:09:06.320Z</time>
      </trkpt>
      <trkpt lat="44.57265" lon="2.60018">
        <ele>662.94378662109</ele>
        <time>2020-07-02T20:09:16.214Z</time>
      </trkpt>
      <trkpt lat="44.57312" lon="2.60004">
        <ele>662.58837890625</ele>
        <time>2020-07-02T20:09:26.124Z</time>
      </trkpt>
      <trkpt lat="44.57333" lon="2.59995">
        <ele>663.22906494141</ele>
        <time>2020-07-02T20:09:36.042Z</time>
      </trkpt>
      <trkpt lat="44.57336" lon="2.59994">
        <ele>663.31896972656</ele>
        <time>2020-07-02T20:09:45.961Z</time>
      </trkpt>
      <trkpt lat="44.57409" lon="2.59966">
        <ele>668.76519775391</ele>
        <time>2020-07-02T20:09:55.905Z</time>
      </trkpt>
      <trkpt lat="44.5742" lon="2.59962">
        <ele>669.56689453125</ele>
        <time>2020-07-02T20:10:05.853Z</time>
      </trkpt>
      <trkpt lat="44.57433" lon="2.59958">
        <ele>670.08142089844</ele>
        <time>2020-07-02T20:10:15.805Z</time>
      </trkpt>
      <trkpt lat="44.57433" lon="2.59958">
        <ele>670.08184814453</ele>
        <time>2020-07-02T20:10:25.757Z</time>
      </trkpt>
      <trkpt lat="44.57522" lon="2.59925">
        <ele>669.23101806641</ele>
        <time>2020-07-02T20:10:35.740Z</time>
      </trkpt>
      <trkpt lat="44.576" lon="2.59907">
        <ele>664.69567871094</ele>
        <time>2020-07-02T20:10:45.749Z</time>
      </trkpt>
      <trkpt lat="44.57728" lon="2.59925">
        <ele>664.72143554688</ele>
        <time>2020-07-02T20:10:55.801Z</time>
      </trkpt>
      <trkpt lat="44.57787" lon="2.59963">
        <ele>665.42791748047</ele>
        <time>2020-07-02T20:11:05.875Z</time>
      </trkpt>
      <trkpt lat="44.57816" lon="2.59994">
        <ele>664.65551757812</ele>
        <time>2020-07-02T20:11:15.961Z</time>
      </trkpt>
      <trkpt lat="44.57838" lon="2.60031">
        <ele>664.2919921875</ele>
        <time>2020-07-02T20:11:26.058Z</time>
      </trkpt>
      <trkpt lat="44.57898" lon="2.60193">
        <ele>669.29705810547</ele>
        <time>2020-07-02T20:11:36.199Z</time>
      </trkpt>
      <trkpt lat="44.57941" lon="2.60283">
        <ele>671.62109375</ele>
        <time>2020-07-02T20:11:46.366Z</time>
      </trkpt>
      <trkpt lat="44.57943" lon="2.60294">
        <ele>671.71069335938</ele>
        <time>2020-07-02T20:11:56.536Z</time>
      </trkpt>
      <trkpt lat="44.57943" lon="2.60295">
        <ele>671.71429443359</ele>
        <time>2020-07-02T20:12:06.706Z</time>
      </trkpt>
      <trkpt lat="44.57943" lon="2.60295">
        <ele>671.71429443359</ele>
        <time>2020-07-02T20:12:16.876Z</time>
      </trkpt>
      <trkpt lat="44.57952" lon="2.60333">
        <ele>672.00970458984</ele>
        <time>2020-07-02T20:12:27.055Z</time>
      </trkpt>
      <trkpt lat="44.57982" lon="2.6041">
        <ele>670.01739501953</ele>
        <time>2020-07-02T20:12:37.255Z</time>
      </trkpt>
      <trkpt lat="44.58018" lon="2.60476">
        <ele>667.16076660156</ele>
        <time>2020-07-02T20:12:47.475Z</time>
      </trkpt>
      <trkpt lat="44.58081" lon="2.60551">
        <ele>664.64697265625</ele>
        <time>2020-07-02T20:12:57.723Z</time>
      </trkpt>
      <trkpt lat="44.58096" lon="2.60643">
        <ele>656.87200927734</ele>
        <time>2020-07-02T20:13:07.993Z</time>
      </trkpt>
      <trkpt lat="44.58106" lon="2.60666">
        <ele>655.84619140625</ele>
        <time>2020-07-02T20:13:18.269Z</time>
      </trkpt>
      <trkpt lat="44.58106" lon="2.60666">
        <ele>655.84643554688</ele>
        <time>2020-07-02T20:13:28.545Z</time>
      </trkpt>
      <trkpt lat="44.58214" lon="2.60763">
        <ele>648.91534423828</ele>
        <time>2020-07-02T20:13:38.864Z</time>
      </trkpt>
      <trkpt lat="44.58287" lon="2.60782">
        <ele>647.44317626953</ele>
        <time>2020-07-02T20:13:49.208Z</time>
      </trkpt>
      <trkpt lat="44.58332" lon="2.60779">
        <ele>643.17492675781</ele>
        <time>2020-07-02T20:13:59.567Z</time>
      </trkpt>
      <trkpt lat="44.58423" lon="2.60723">
        <ele>640.95227050781</ele>
        <time>2020-07-02T20:14:09.959Z</time>
      </trkpt>
      <trkpt lat="44.58444" lon="2.60719">
        <ele>636.27960205078</ele>
        <time>2020-07-02T20:14:20.358Z</time>
      </trkpt>
      <trkpt lat="44.58529" lon="2.6073">
        <ele>624.11059570312</ele>
        <time>2020-07-02T20:14:30.786Z</time>
      </trkpt>
      <trkpt lat="44.5858" lon="2.60765">
        <ele>617.74420166016</ele>
        <time>2020-07-02T20:14:41.233Z</time>
      </trkpt>
      <trkpt lat="44.586" lon="2.60765">
        <ele>616.35400390625</ele>
        <time>2020-07-02T20:14:51.686Z</time>
      </trkpt>
      <trkpt lat="44.5865" lon="2.60706">
        <ele>608.30700683594</ele>
        <time>2020-07-02T20:15:02.161Z</time>
      </trkpt>
      <trkpt lat="44.58652" lon="2.60598">
        <ele>603.64825439453</ele>
        <time>2020-07-02T20:15:12.662Z</time>
      </trkpt>
      <trkpt lat="44.58683" lon="2.60577">
        <ele>601.78698730469</ele>
        <time>2020-07-02T20:15:23.174Z</time>
      </trkpt>
      <trkpt lat="44.58674" lon="2.60562">
        <ele>601.82562255859</ele>
        <time>2020-07-02T20:15:33.691Z</time>
      </trkpt>
      <trkpt lat="44.58641" lon="2.6055">
        <ele>603.33166503906</ele>
        <time>2020-07-02T20:15:44.219Z</time>
      </trkpt>
      <trkpt lat="44.58636" lon="2.6052">
        <ele>602.57220458984</ele>
        <time>2020-07-02T20:15:54.755Z</time>
      </trkpt>
      <trkpt lat="44.58639" lon="2.60504">
        <ele>602.49267578125</ele>
        <time>2020-07-02T20:16:05.295Z</time>
      </trkpt>
      <trkpt lat="44.58669" lon="2.60476">
        <ele>605.20324707031</ele>
        <time>2020-07-02T20:16:15.847Z</time>
      </trkpt>
      <trkpt lat="44.5869" lon="2.60467">
        <ele>604.47882080078</ele>
        <time>2020-07-02T20:16:26.406Z</time>
      </trkpt>
      <trkpt lat="44.58719" lon="2.60432">
        <ele>605.14392089844</ele>
        <time>2020-07-02T20:16:36.978Z</time>
      </trkpt>
      <trkpt lat="44.58729" lon="2.60387">
        <ele>606.64794921875</ele>
        <time>2020-07-02T20:16:47.561Z</time>
      </trkpt>
      <trkpt lat="44.58744" lon="2.60362">
        <ele>607.29010009766</ele>
        <time>2020-07-02T20:16:58.152Z</time>
      </trkpt>
      <trkpt lat="44.58784" lon="2.60348">
        <ele>604.853515625</ele>
        <time>2020-07-02T20:17:08.756Z</time>
      </trkpt>
      <trkpt lat="44.58784" lon="2.60348">
        <ele>604.82818603516</ele>
        <time>2020-07-02T20:17:19.360Z</time>
      </trkpt>
      <trkpt lat="44.58784" lon="2.60348">
        <ele>604.82818603516</ele>
        <time>2020-07-02T20:17:29.964Z</time>
      </trkpt>
      <trkpt lat="44.58793" lon="2.60345">
        <ele>604.68096923828</ele>
        <time>2020-07-02T20:17:40.571Z</time>
      </trkpt>
      <trkpt lat="44.58821" lon="2.60416">
        <ele>596.54602050781</ele>
        <time>2020-07-02T20:17:51.198Z</time>
      </trkpt>
      <trkpt lat="44.58855" lon="2.60468">
        <ele>592.84161376953</ele>
        <time>2020-07-02T20:18:01.842Z</time>
      </trkpt>
      <trkpt lat="44.58894" lon="2.60376">
        <ele>592.99194335938</ele>
        <time>2020-07-02T20:18:12.511Z</time>
      </trkpt>
      <trkpt lat="44.58896" lon="2.60296">
        <ele>599.03015136719</ele>
        <time>2020-07-02T20:18:23.199Z</time>
      </trkpt>
      <trkpt lat="44.58902" lon="2.60271">
        <ele>600.25994873047</ele>
        <time>2020-07-02T20:18:33.893Z</time>
      </trkpt>
      <trkpt lat="44.58929" lon="2.60209">
        <ele>596.90667724609</ele>
        <time>2020-07-02T20:18:44.605Z</time>
      </trkpt>
      <trkpt lat="44.58936" lon="2.60201">
        <ele>595.37487792969</ele>
        <time>2020-07-02T20:18:55.320Z</time>
      </trkpt>
      <trkpt lat="44.5896" lon="2.60205">
        <ele>589.62622070312</ele>
        <time>2020-07-02T20:19:06.043Z</time>
      </trkpt>
      <trkpt lat="44.58959" lon="2.60179">
        <ele>592.30364990234</ele>
        <time>2020-07-02T20:19:16.772Z</time>
      </trkpt>
      <trkpt lat="44.58892" lon="2.60105">
        <ele>609.62310791016</ele>
        <time>2020-07-02T20:19:27.530Z</time>
      </trkpt>
      <trkpt lat="44.58884" lon="2.60074">
        <ele>614.12249755859</ele>
        <time>2020-07-02T20:19:38.295Z</time>
      </trkpt>
      <trkpt lat="44.58917" lon="2.60081">
        <ele>610.54400634766</ele>
        <time>2020-07-02T20:19:49.071Z</time>
      </trkpt>
      <trkpt lat="44.58936" lon="2.60067">
        <ele>609.7412109375</ele>
        <time>2020-07-02T20:19:59.855Z</time>
      </trkpt>
      <trkpt lat="44.58944" lon="2.59999">
        <ele>618.64556884766</ele>
        <time>2020-07-02T20:20:10.655Z</time>
      </trkpt>
      <trkpt lat="44.58955" lon="2.60005">
        <ele>617.44665527344</ele>
        <time>2020-07-02T20:20:21.459Z</time>
      </trkpt>
      <trkpt lat="44.58994" lon="2.60084">
        <ele>605.05651855469</ele>
        <time>2020-07-02T20:20:32.286Z</time>
      </trkpt>
      <trkpt lat="44.59016" lon="2.60098">
        <ele>601.24432373047</ele>
        <time>2020-07-02T20:20:43.121Z</time>
      </trkpt>
      <trkpt lat="44.59039" lon="2.60085">
        <ele>602.68243408203</ele>
        <time>2020-07-02T20:20:53.964Z</time>
      </trkpt>
      <trkpt lat="44.59079" lon="2.60036">
        <ele>611.33557128906</ele>
        <time>2020-07-02T20:21:04.825Z</time>
      </trkpt>
      <trkpt lat="44.59169" lon="2.59987">
        <ele>623.98327636719</ele>
        <time>2020-07-02T20:21:15.718Z</time>
      </trkpt>
      <trkpt lat="44.59224" lon="2.59941">
        <ele>634.71221923828</ele>
        <time>2020-07-02T20:21:26.632Z</time>
      </trkpt>
      <trkpt lat="44.59247" lon="2.59903">
        <ele>637.29071044922</ele>
        <time>2020-07-02T20:21:37.558Z</time>
      </trkpt>
      <trkpt lat="44.59317" lon="2.59737">
        <ele>655.60778808594</ele>
        <time>2020-07-02T20:21:48.530Z</time>
      </trkpt>
      <trkpt lat="44.5942" lon="2.59789">
        <ele>635.05377197266</ele>
        <time>2020-07-02T20:21:59.539Z</time>
      </trkpt>
      <trkpt lat="44.5942" lon="2.59789">
        <ele>634.9873046875</ele>
        <time>2020-07-02T20:22:10.548Z</time>
      </trkpt>
      <trkpt lat="44.5942" lon="2.59789">
        <ele>634.98895263672</ele>
        <time>2020-07-02T20:22:21.557Z</time>
      </trkpt>
      <trkpt lat="44.59422" lon="2.5979">
        <ele>634.63250732422</ele>
        <time>2020-07-02T20:22:32.567Z</time>
      </trkpt>
      <trkpt lat="44.59441" lon="2.59787">
        <ele>633.22863769531</ele>
        <time>2020-07-02T20:22:43.583Z</time>
      </trkpt>
      <trkpt lat="44.59466" lon="2.5975">
        <ele>635.87658691406</ele>
        <time>2020-07-02T20:22:54.611Z</time>
      </trkpt>
      <trkpt lat="44.59471" lon="2.59735">
        <ele>636.54595947266</ele>
        <time>2020-07-02T20:23:05.643Z</time>
      </trkpt>
      <trkpt lat="44.59458" lon="2.59636">
        <ele>640.94720458984</ele>
        <time>2020-07-02T20:23:16.699Z</time>
      </trkpt>
      <trkpt lat="44.59457" lon="2.59571">
        <ele>642.52416992188</ele>
        <time>2020-07-02T20:23:27.770Z</time>
      </trkpt>
      <trkpt lat="44.59436" lon="2.59472">
        <ele>639.30114746094</ele>
        <time>2020-07-02T20:23:38.866Z</time>
      </trkpt>
      <trkpt lat="44.59405" lon="2.59435">
        <ele>636.48205566406</ele>
        <time>2020-07-02T20:23:49.976Z</time>
      </trkpt>
      <trkpt lat="44.59315" lon="2.59416">
        <ele>648.06701660156</ele>
        <time>2020-07-02T20:24:01.116Z</time>
      </trkpt>
      <trkpt lat="44.59282" lon="2.59369">
        <ele>654.83239746094</ele>
        <time>2020-07-02T20:24:12.272Z</time>
      </trkpt>
      <trkpt lat="44.59281" lon="2.59343">
        <ele>654.67791748047</ele>
        <time>2020-07-02T20:24:23.434Z</time>
      </trkpt>
      <trkpt lat="44.593" lon="2.59203">
        <ele>651.84118652344</ele>
        <time>2020-07-02T20:24:34.630Z</time>
      </trkpt>
      <trkpt lat="44.593" lon="2.59203">
        <ele>651.84375</ele>
        <time>2020-07-02T20:24:45.826Z</time>
      </trkpt>
      <trkpt lat="44.59308" lon="2.59148">
        <ele>652.34759521484</ele>
        <time>2020-07-02T20:24:57.035Z</time>
      </trkpt>
      <trkpt lat="44.59319" lon="2.59127">
        <ele>650.91876220703</ele>
        <time>2020-07-02T20:25:08.250Z</time>
      </trkpt>
      <trkpt lat="44.59338" lon="2.59124">
        <ele>648.01263427734</ele>
        <time>2020-07-02T20:25:19.472Z</time>
      </trkpt>
      <trkpt lat="44.59359" lon="2.59102">
        <ele>646.72540283203</ele>
        <time>2020-07-02T20:25:30.702Z</time>
      </trkpt>
      <trkpt lat="44.59372" lon="2.59102">
        <ele>644.98992919922</ele>
        <time>2020-07-02T20:25:41.937Z</time>
      </trkpt>
      <trkpt lat="44.59395" lon="2.59106">
        <ele>642.85540771484</ele>
        <time>2020-07-02T20:25:53.179Z</time>
      </trkpt>
      <trkpt lat="44.59406" lon="2.59098">
        <ele>642.81683349609</ele>
        <time>2020-07-02T20:26:04.426Z</time>
      </trkpt>
      <trkpt lat="44.59412" lon="2.58981">
        <ele>661.71783447266</ele>
        <time>2020-07-02T20:26:15.700Z</time>
      </trkpt>
      <trkpt lat="44.59427" lon="2.58899">
        <ele>667.00158691406</ele>
        <time>2020-07-02T20:26:26.995Z</time>
      </trkpt>
      <trkpt lat="44.59444" lon="2.58865">
        <ele>664.10528564453</ele>
        <time>2020-07-02T20:26:38.300Z</time>
      </trkpt>
      <trkpt lat="44.5942" lon="2.58818">
        <ele>666.40423583984</ele>
        <time>2020-07-02T20:26:49.618Z</time>
      </trkpt>
      <trkpt lat="44.59386" lon="2.58771">
        <ele>665.63189697266</ele>
        <time>2020-07-02T20:27:00.952Z</time>
      </trkpt>
      <trkpt lat="44.59338" lon="2.58733">
        <ele>665.52905273438</ele>
        <time>2020-07-02T20:27:12.305Z</time>
      </trkpt>
      <trkpt lat="44.59314" lon="2.58698">
        <ele>661.56433105469</ele>
        <time>2020-07-02T20:27:23.669Z</time>
      </trkpt>
      <trkpt lat="44.59304" lon="2.58635">
        <ele>653.04425048828</ele>
        <time>2020-07-02T20:27:35.049Z</time>
      </trkpt>
      <trkpt lat="44.59279" lon="2.5859">
        <ele>650.74719238281</ele>
        <time>2020-07-02T20:27:46.442Z</time>
      </trkpt>
      <trkpt lat="44.59269" lon="2.58596">
        <ele>651.79510498047</ele>
        <time>2020-07-02T20:27:57.839Z</time>
      </trkpt>
      <trkpt lat="44.59269" lon="2.58596">
        <ele>651.83837890625</ele>
        <time>2020-07-02T20:28:09.236Z</time>
      </trkpt>
      <trkpt lat="44.59269" lon="2.58596">
        <ele>651.83807373047</ele>
        <time>2020-07-02T20:28:20.633Z</time>
      </trkpt>
      <trkpt lat="44.59279" lon="2.5859">
        <ele>650.74719238281</ele>
        <time>2020-07-02T20:28:32.034Z</time>
      </trkpt>
      <trkpt lat="44.59327" lon="2.58555">
        <ele>647.27264404297</ele>
        <time>2020-07-02T20:28:43.453Z</time>
      </trkpt>
      <trkpt lat="44.5938" lon="2.58473">
        <ele>643.62799072266</ele>
        <time>2020-07-02T20:28:54.898Z</time>
      </trkpt>
      <trkpt lat="44.59448" lon="2.58287">
        <ele>640.16320800781</ele>
        <time>2020-07-02T20:29:06.393Z</time>
      </trkpt>
      <trkpt lat="44.59432" lon="2.58283">
        <ele>639.42950439453</ele>
        <time>2020-07-02T20:29:17.893Z</time>
      </trkpt>
      <trkpt lat="44.59342" lon="2.58312">
        <ele>641.62951660156</ele>
        <time>2020-07-02T20:29:29.424Z</time>
      </trkpt>
      <trkpt lat="44.59291" lon="2.58329">
        <ele>642.86547851562</ele>
        <time>2020-07-02T20:29:40.973Z</time>
      </trkpt>
      <trkpt lat="44.59164" lon="2.5831">
        <ele>647.60382080078</ele>
        <time>2020-07-02T20:29:52.564Z</time>
      </trkpt>
      <trkpt lat="44.59164" lon="2.5831">
        <ele>647.60400390625</ele>
        <time>2020-07-02T20:30:04.155Z</time>
      </trkpt>
      <trkpt lat="44.5916" lon="2.58309">
        <ele>647.55255126953</ele>
        <time>2020-07-02T20:30:15.748Z</time>
      </trkpt>
      <trkpt lat="44.5916" lon="2.58309">
        <ele>647.5458984375</ele>
        <time>2020-07-02T20:30:27.341Z</time>
      </trkpt>
      <trkpt lat="44.5916" lon="2.58309">
        <ele>647.54565429688</ele>
        <time>2020-07-02T20:30:38.934Z</time>
      </trkpt>
      <trkpt lat="44.59135" lon="2.58305">
        <ele>647.16613769531</ele>
        <time>2020-07-02T20:30:50.535Z</time>
      </trkpt>
      <trkpt lat="44.59063" lon="2.58274">
        <ele>648.63116455078</ele>
        <time>2020-07-02T20:31:02.161Z</time>
      </trkpt>
      <trkpt lat="44.59007" lon="2.58289">
        <ele>648.51513671875</ele>
        <time>2020-07-02T20:31:13.806Z</time>
      </trkpt>
      <trkpt lat="44.58968" lon="2.58281">
        <ele>648.76989746094</ele>
        <time>2020-07-02T20:31:25.464Z</time>
      </trkpt>
      <trkpt lat="44.58924" lon="2.58298">
        <ele>642.85791015625</ele>
        <time>2020-07-02T20:31:37.138Z</time>
      </trkpt>
      <trkpt lat="44.58901" lon="2.58282">
        <ele>641.42907714844</ele>
        <time>2020-07-02T20:31:48.820Z</time>
      </trkpt>
      <trkpt lat="44.58891" lon="2.58265">
        <ele>641.80236816406</ele>
        <time>2020-07-02T20:32:00.507Z</time>
      </trkpt>
      <trkpt lat="44.58871" lon="2.58187">
        <ele>643.45092773438</ele>
        <time>2020-07-02T20:32:12.214Z</time>
      </trkpt>
      <trkpt lat="44.5886" lon="2.5817">
        <ele>643.80487060547</ele>
        <time>2020-07-02T20:32:23.926Z</time>
      </trkpt>
      <trkpt lat="44.58765" lon="2.58178">
        <ele>641.07800292969</ele>
        <time>2020-07-02T20:32:35.670Z</time>
      </trkpt>
      <trkpt lat="44.58706" lon="2.58135">
        <ele>633.81549072266</ele>
        <time>2020-07-02T20:32:47.436Z</time>
      </trkpt>
      <trkpt lat="44.58577" lon="2.58072">
        <ele>630.05413818359</ele>
        <time>2020-07-02T20:32:59.248Z</time>
      </trkpt>
      <trkpt lat="44.58491" lon="2.58041">
        <ele>629.95770263672</ele>
        <time>2020-07-02T20:33:11.089Z</time>
      </trkpt>
      <trkpt lat="44.58474" lon="2.58026">
        <ele>629.57153320312</ele>
        <time>2020-07-02T20:33:22.937Z</time>
      </trkpt>
      <trkpt lat="44.58421" lon="2.57948">
        <ele>630.19952392578</ele>
        <time>2020-07-02T20:33:34.811Z</time>
      </trkpt>
      <trkpt lat="44.58391" lon="2.57926">
        <ele>630.28961181641</ele>
        <time>2020-07-02T20:33:46.696Z</time>
      </trkpt>
      <trkpt lat="44.58354" lon="2.57917">
        <ele>629.97448730469</ele>
        <time>2020-07-02T20:33:58.594Z</time>
      </trkpt>
      <trkpt lat="44.58259" lon="2.57918">
        <ele>629.39373779297</ele>
        <time>2020-07-02T20:34:10.523Z</time>
      </trkpt>
      <trkpt lat="44.58259" lon="2.57918">
        <ele>629.39398193359</ele>
        <time>2020-07-02T20:34:22.452Z</time>
      </trkpt>
      <trkpt lat="44.58215" lon="2.57914">
        <ele>628.18395996094</ele>
        <time>2020-07-02T20:34:34.396Z</time>
      </trkpt>
      <trkpt lat="44.58175" lon="2.57868">
        <ele>627.14562988281</ele>
        <time>2020-07-02T20:34:46.357Z</time>
      </trkpt>
      <trkpt lat="44.58123" lon="2.5784">
        <ele>627.99523925781</ele>
        <time>2020-07-02T20:34:58.337Z</time>
      </trkpt>
      <trkpt lat="44.58123" lon="2.5784">
        <ele>627.99493408203</ele>
        <time>2020-07-02T20:35:10.317Z</time>
      </trkpt>
      <trkpt lat="44.58118" lon="2.57839">
        <ele>627.9072265625</ele>
        <time>2020-07-02T20:35:22.299Z</time>
      </trkpt>
      <trkpt lat="44.58118" lon="2.57839">
        <ele>627.90716552734</ele>
        <time>2020-07-02T20:35:34.281Z</time>
      </trkpt>
      <trkpt lat="44.58081" lon="2.57833">
        <ele>628.46154785156</ele>
        <time>2020-07-02T20:35:46.275Z</time>
      </trkpt>
      <trkpt lat="44.5808" lon="2.57833">
        <ele>628.46826171875</ele>
        <time>2020-07-02T20:35:58.269Z</time>
      </trkpt>
      <trkpt lat="44.5808" lon="2.57833">
        <ele>628.46850585938</ele>
        <time>2020-07-02T20:36:10.263Z</time>
      </trkpt>
      <trkpt lat="44.5808" lon="2.57833">
        <ele>628.46966552734</ele>
        <time>2020-07-02T20:36:22.257Z</time>
      </trkpt>
      <trkpt lat="44.58051" lon="2.57841">
        <ele>628.65386962891</ele>
        <time>2020-07-02T20:36:34.261Z</time>
      </trkpt>
      <trkpt lat="44.57976" lon="2.57912">
        <ele>634.38067626953</ele>
        <time>2020-07-02T20:36:46.295Z</time>
      </trkpt>
      <trkpt lat="44.57931" lon="2.57939">
        <ele>637.96862792969</ele>
        <time>2020-07-02T20:36:58.346Z</time>
      </trkpt>
      <trkpt lat="44.57817" lon="2.57979">
        <ele>647.62805175781</ele>
        <time>2020-07-02T20:37:10.436Z</time>
      </trkpt>
      <trkpt lat="44.57704" lon="2.58046">
        <ele>656.486328125</ele>
        <time>2020-07-02T20:37:22.567Z</time>
      </trkpt>
      <trkpt lat="44.57645" lon="2.58054">
        <ele>658.63488769531</ele>
        <time>2020-07-02T20:37:34.718Z</time>
      </trkpt>
      <trkpt lat="44.57628" lon="2.58035">
        <ele>658.40118408203</ele>
        <time>2020-07-02T20:37:46.876Z</time>
      </trkpt>
      <trkpt lat="44.57628" lon="2.58034">
        <ele>658.39605712891</ele>
        <time>2020-07-02T20:37:59.034Z</time>
      </trkpt>
      <trkpt lat="44.57628" lon="2.58034">
        <ele>658.39599609375</ele>
        <time>2020-07-02T20:38:11.192Z</time>
      </trkpt>
      <trkpt lat="44.57628" lon="2.58034">
        <ele>658.39569091797</ele>
        <time>2020-07-02T20:38:23.350Z</time>
      </trkpt>
      <trkpt lat="44.57622" lon="2.58027">
        <ele>658.31311035156</ele>
        <time>2020-07-02T20:38:35.511Z</time>
      </trkpt>
      <trkpt lat="44.57471" lon="2.579">
        <ele>654.90856933594</ele>
        <time>2020-07-02T20:38:47.730Z</time>
      </trkpt>
      <trkpt lat="44.57352" lon="2.57859">
        <ele>654.51458740234</ele>
        <time>2020-07-02T20:38:59.990Z</time>
      </trkpt>
      <trkpt lat="44.57334" lon="2.57845">
        <ele>654.46319580078</ele>
        <time>2020-07-02T20:39:12.257Z</time>
      </trkpt>
      <trkpt lat="44.57407" lon="2.57673">
        <ele>657.25927734375</ele>
        <time>2020-07-02T20:39:24.572Z</time>
      </trkpt>
      <trkpt lat="44.57392" lon="2.57612">
        <ele>656.18048095703</ele>
        <time>2020-07-02T20:39:36.902Z</time>
      </trkpt>
      <trkpt lat="44.57316" lon="2.57471">
        <ele>655.63079833984</ele>
        <time>2020-07-02T20:39:49.274Z</time>
      </trkpt>
      <trkpt lat="44.57291" lon="2.57406">
        <ele>656.57800292969</ele>
        <time>2020-07-02T20:40:01.664Z</time>
      </trkpt>
      <trkpt lat="44.57291" lon="2.57406">
        <ele>656.57861328125</ele>
        <time>2020-07-02T20:40:14.054Z</time>
      </trkpt>
      <trkpt lat="44.57268" lon="2.57353">
        <ele>655.79754638672</ele>
        <time>2020-07-02T20:40:26.459Z</time>
      </trkpt>
      <trkpt lat="44.57248" lon="2.57314">
        <ele>655.03802490234</ele>
        <time>2020-07-02T20:40:38.875Z</time>
      </trkpt>
      <trkpt lat="44.57221" lon="2.57265">
        <ele>654.09613037109</ele>
        <time>2020-07-02T20:40:51.306Z</time>
      </trkpt>
      <trkpt lat="44.57197" lon="2.57167">
        <ele>653.90618896484</ele>
        <time>2020-07-02T20:41:03.761Z</time>
      </trkpt>
      <trkpt lat="44.57196" lon="2.57143">
        <ele>654.34844970703</ele>
        <time>2020-07-02T20:41:16.222Z</time>
      </trkpt>
      <trkpt lat="44.57237" lon="2.56979">
        <ele>655.29858398438</ele>
        <time>2020-07-02T20:41:28.725Z</time>
      </trkpt>
      <trkpt lat="44.57237" lon="2.56978">
        <ele>655.29376220703</ele>
        <time>2020-07-02T20:41:41.228Z</time>
      </trkpt>
      <trkpt lat="44.57237" lon="2.56978">
        <ele>655.29406738281</ele>
        <time>2020-07-02T20:41:53.731Z</time>
      </trkpt>
      <trkpt lat="44.57262" lon="2.56881">
        <ele>651.03344726562</ele>
        <time>2020-07-02T20:42:06.258Z</time>
      </trkpt>
      <trkpt lat="44.57262" lon="2.56791">
        <ele>646.48522949219</ele>
        <time>2020-07-02T20:42:18.807Z</time>
      </trkpt>
      <trkpt lat="44.57255" lon="2.56738">
        <ele>644.22485351562</ele>
        <time>2020-07-02T20:42:31.369Z</time>
      </trkpt>
      <trkpt lat="44.57224" lon="2.5669">
        <ele>643.20611572266</ele>
        <time>2020-07-02T20:42:43.946Z</time>
      </trkpt>
      <trkpt lat="44.57166" lon="2.56696">
        <ele>644.85534667969</ele>
        <time>2020-07-02T20:42:56.542Z</time>
      </trkpt>
      <trkpt lat="44.57142" lon="2.5669">
        <ele>645.21600341797</ele>
        <time>2020-07-02T20:43:09.147Z</time>
      </trkpt>
      <trkpt lat="44.57122" lon="2.56644">
        <ele>644.33697509766</ele>
        <time>2020-07-02T20:43:21.764Z</time>
      </trkpt>
      <trkpt lat="44.57117" lon="2.56754">
        <ele>647.09802246094</ele>
        <time>2020-07-02T20:43:34.408Z</time>
      </trkpt>
      <trkpt lat="44.57117" lon="2.56755">
        <ele>647.10986328125</ele>
        <time>2020-07-02T20:43:47.052Z</time>
      </trkpt>
      <trkpt lat="44.57117" lon="2.56763">
        <ele>647.30999755859</ele>
        <time>2020-07-02T20:43:59.698Z</time>
      </trkpt>
      <trkpt lat="44.57103" lon="2.5683">
        <ele>649.30682373047</ele>
        <time>2020-07-02T20:44:12.360Z</time>
      </trkpt>
      <trkpt lat="44.57095" lon="2.56854">
        <ele>650.23150634766</ele>
        <time>2020-07-02T20:44:25.028Z</time>
      </trkpt>
      <trkpt lat="44.57035" lon="2.56957">
        <ele>649.63824462891</ele>
        <time>2020-07-02T20:44:37.728Z</time>
      </trkpt>
      <trkpt lat="44.56939" lon="2.57096">
        <ele>643.57794189453</ele>
        <time>2020-07-02T20:44:50.474Z</time>
      </trkpt>
      <trkpt lat="44.56869" lon="2.57146">
        <ele>647.15350341797</ele>
        <time>2020-07-02T20:45:03.246Z</time>
      </trkpt>
      <trkpt lat="44.56831" lon="2.57206">
        <ele>647.53082275391</ele>
        <time>2020-07-02T20:45:16.037Z</time>
      </trkpt>
      <trkpt lat="44.56677" lon="2.57327">
        <ele>650.86419677734</ele>
        <time>2020-07-02T20:45:28.888Z</time>
      </trkpt>
      <trkpt lat="44.56589" lon="2.57423">
        <ele>648.86053466797</ele>
        <time>2020-07-02T20:45:41.776Z</time>
      </trkpt>
      <trkpt lat="44.5656" lon="2.57447">
        <ele>646.57647705078</ele>
        <time>2020-07-02T20:45:54.675Z</time>
      </trkpt>
      <trkpt lat="44.56513" lon="2.57471">
        <ele>643.81549072266</ele>
        <time>2020-07-02T20:46:07.591Z</time>
      </trkpt>
      <trkpt lat="44.56439" lon="2.57489">
        <ele>640.66583251953</ele>
        <time>2020-07-02T20:46:20.532Z</time>
      </trkpt>
      <trkpt lat="44.56279" lon="2.57554">
        <ele>631.48937988281</ele>
        <time>2020-07-02T20:46:33.528Z</time>
      </trkpt>
      <trkpt lat="44.56265" lon="2.57724">
        <ele>629.82403564453</ele>
        <time>2020-07-02T20:46:46.565Z</time>
      </trkpt>
      <trkpt lat="44.56196" lon="2.57784">
        <ele>626.82922363281</ele>
        <time>2020-07-02T20:46:59.629Z</time>
      </trkpt>
      <trkpt lat="44.5608" lon="2.57844">
        <ele>622.98193359375</ele>
        <time>2020-07-02T20:47:12.734Z</time>
      </trkpt>
      <trkpt lat="44.56087" lon="2.57883">
        <ele>623.98669433594</ele>
        <time>2020-07-02T20:47:25.849Z</time>
      </trkpt>
      <trkpt lat="44.56101" lon="2.57915">
        <ele>625.36694335938</ele>
        <time>2020-07-02T20:47:38.973Z</time>
      </trkpt>
      <trkpt lat="44.56101" lon="2.57916">
        <ele>625.39074707031</ele>
        <time>2020-07-02T20:47:52.097Z</time>
      </trkpt>
      <trkpt lat="44.56101" lon="2.57916">
        <ele>625.39154052734</ele>
        <time>2020-07-02T20:48:05.221Z</time>
      </trkpt>
      <trkpt lat="44.56104" lon="2.57923">
        <ele>625.49499511719</ele>
        <time>2020-07-02T20:48:18.347Z</time>
      </trkpt>
      <trkpt lat="44.56253" lon="2.58147">
        <ele>632.53729248047</ele>
        <time>2020-07-02T20:48:31.546Z</time>
      </trkpt>
      <trkpt lat="44.56326" lon="2.58183">
        <ele>632.31512451172</ele>
        <time>2020-07-02T20:48:44.770Z</time>
      </trkpt>
      <trkpt lat="44.56351" lon="2.58184">
        <ele>630.22979736328</ele>
        <time>2020-07-02T20:48:58.003Z</time>
      </trkpt>
      <trkpt lat="44.56387" lon="2.5817">
        <ele>627.51831054688</ele>
        <time>2020-07-02T20:49:11.248Z</time>
      </trkpt>
      <trkpt lat="44.56423" lon="2.58175">
        <ele>624.77587890625</ele>
        <time>2020-07-02T20:49:24.505Z</time>
      </trkpt>
      <trkpt lat="44.565" lon="2.582">
        <ele>619.88452148438</ele>
        <time>2020-07-02T20:49:37.789Z</time>
      </trkpt>
      <trkpt lat="44.56576" lon="2.58327">
        <ele>621.380859375</ele>
        <time>2020-07-02T20:49:51.112Z</time>
      </trkpt>
      <trkpt lat="44.5659" lon="2.58398">
        <ele>622.08135986328</ele>
        <time>2020-07-02T20:50:04.453Z</time>
      </trkpt>
      <trkpt lat="44.56606" lon="2.58423">
        <ele>624.43701171875</ele>
        <time>2020-07-02T20:50:17.802Z</time>
      </trkpt>
      <trkpt lat="44.56618" lon="2.58435">
        <ele>626.39978027344</ele>
        <time>2020-07-02T20:50:31.156Z</time>
      </trkpt>
      <trkpt lat="44.56672" lon="2.58459">
        <ele>630.37109375</ele>
        <time>2020-07-02T20:50:44.528Z</time>
      </trkpt>
      <trkpt lat="44.56688" lon="2.58482">
        <ele>630.69287109375</ele>
        <time>2020-07-02T20:50:57.908Z</time>
      </trkpt>
      <trkpt lat="44.56688" lon="2.58509">
        <ele>630.42767333984</ele>
        <time>2020-07-02T20:51:11.294Z</time>
      </trkpt>
      <trkpt lat="44.56675" lon="2.58566">
        <ele>633.80334472656</ele>
        <time>2020-07-02T20:51:24.695Z</time>
      </trkpt>
      <trkpt lat="44.56688" lon="2.58619">
        <ele>639.35681152344</ele>
        <time>2020-07-02T20:51:38.109Z</time>
      </trkpt>
      <trkpt lat="44.56688" lon="2.58619">
        <ele>639.35711669922</ele>
        <time>2020-07-02T20:51:51.523Z</time>
      </trkpt>
      <trkpt lat="44.56741" lon="2.58716">
        <ele>642.36328125</ele>
        <time>2020-07-02T20:52:04.966Z</time>
      </trkpt>
      <trkpt lat="44.56799" lon="2.58763">
        <ele>642.21667480469</ele>
        <time>2020-07-02T20:52:18.432Z</time>
      </trkpt>
      <trkpt lat="44.56875" lon="2.58822">
        <ele>648.29223632812</ele>
        <time>2020-07-02T20:52:31.927Z</time>
      </trkpt>
      <trkpt lat="44.56876" lon="2.58823">
        <ele>648.34796142578</ele>
        <time>2020-07-02T20:52:45.422Z</time>
      </trkpt>
    </trkseg>
  </trk>
</gpx>